Home > Products > Valid Products > TAF

000
FTUS46 KPQR 300850 AAA
TAFPDX
TAF AMD
KPDX 300850Z 3009/3106 30004KT P6SM SCT200
     FM302100 20006KT P6SM BKN150
     FM310500 18010KT P6SM -RA SCT040 OVC060=



000
FTUS46 KPQR 300850 AAA
TAFPDX
TAF AMD
KPDX 300850Z 3009/3106 30004KT P6SM SCT200
     FM302100 20006KT P6SM BKN150
     FM310500 18010KT P6SM -RA SCT040 OVC060=



000
FTUS46 KPQR 300808 AAA
TAFONP
TAF AMD
KONP 300808Z 3008/3106 29003KT P6SM OVC010
     FM301100 VRB03KT 3SM BR OVC005
     FM301800 15003KT P6SM SCT009 BKN020
     FM310200 20014KT P6SM -RA OVC050
     FM310400 20014KT 6SM -RA BKN012 OVC020=



000
FTUS46 KPQR 300808 AAA
TAFONP
TAF AMD
KONP 300808Z 3008/3106 29003KT P6SM OVC010
     FM301100 VRB03KT 3SM BR OVC005
     FM301800 15003KT P6SM SCT009 BKN020
     FM310200 20014KT P6SM -RA OVC050
     FM310400 20014KT 6SM -RA BKN012 OVC020=



000
FTUS46 KPQR 300621 AAA
TAFAST
TAF AMD
KAST 300621Z 3006/3106 19003KT P6SM OVC019
     FM301100 20005KT P6SM SCT008 BKN015 OVC080
     FM301500 15005KT P6SM SCT030 OVC050
     FM310000 20014KT P6SM OVC050
     FM310400 19014KT 6SM -RA BKN020 OVC040=



000
FTUS46 KPQR 300621 AAA
TAFAST
TAF AMD
KAST 300621Z 3006/3106 19003KT P6SM OVC019
     FM301100 20005KT P6SM SCT008 BKN015 OVC080
     FM301500 15005KT P6SM SCT030 OVC050
     FM310000 20014KT P6SM OVC050
     FM310400 19014KT 6SM -RA BKN020 OVC040=



000
FTUS46 KPQR 300621 AAA
TAFAST
TAF AMD
KAST 300621Z 3006/3106 19003KT P6SM OVC019
     FM301100 20005KT P6SM SCT008 BKN015 OVC080
     FM301500 15005KT P6SM SCT030 OVC050
     FM310000 20014KT P6SM OVC050
     FM310400 19014KT 6SM -RA BKN020 OVC040=



000
FTUS46 KPQR 300524
TAFEUG
TAF
KEUG 300524Z 3006/3106 VRB04KT P6SM FEW150
     FM301400 21004KT P6SM FEW015
     FM302000 18009KT P6SM SCT200=



000
FTUS46 KPQR 300524
TAFAST
TAF
KAST 300524Z 3006/3106 20005KT P6SM BKN020 OVC080
     FM301100 20005KT P6SM SCT008 BKN015 OVC080
     FM301500 15005KT P6SM SCT030 OVC050
     FM310000 20014KT P6SM OVC050
     FM310400 19014KT 6SM -RA BKN020 OVC040=



000
FTUS46 KPQR 300524
TAFHIO
TAF
KHIO 300524Z 3006/3106 VRB03KT P6SM BKN200
     FM302200 18008KT P6SM SCT060 BKN100
     FM310300 18010KT P6SM -RA SCT040 OVC060=



000
FTUS46 KPQR 300524
TAFHIO
TAF
KHIO 300524Z 3006/3106 VRB03KT P6SM BKN200
     FM302200 18008KT P6SM SCT060 BKN100
     FM310300 18010KT P6SM -RA SCT040 OVC060=



000
FTUS46 KPQR 300524
TAFONP
TAF
KONP 300524Z 3006/3106 29003KT P6SM OVC008
     FM301100 VRB03KT 3SM BR OVC005
     FM301800 15003KT P6SM SCT009 BKN020
     FM310200 20014KT P6SM -RA OVC050
     FM310400 20014KT 6SM -RA BKN012 OVC020=



000
FTUS46 KPQR 300524
TAFAST
TAF
KAST 300524Z 3006/3106 20005KT P6SM BKN020 OVC080
     FM301100 20005KT P6SM SCT008 BKN015 OVC080
     FM301500 15005KT P6SM SCT030 OVC050
     FM310000 20014KT P6SM OVC050
     FM310400 19014KT 6SM -RA BKN020 OVC040=



000
FTUS46 KPQR 300524
TAFPDX
TAF
KPDX 300524Z 3006/3106 VRB04KT P6SM SCT200
     FM302100 17009KT P6SM BKN150
     FM310400 18010KT P6SM -RA SCT040 OVC060=



000
FTUS46 KPQR 300524
TAFTTD
TAF
KTTD 300524Z 3006/3106 VRB04KT P6SM BKN200
     FM310400 19006KT P6SM -RA SCT040 OVC060=



000
FTUS46 KPQR 300524
TAFAST
TAF
KAST 300524Z 3006/3106 20005KT P6SM BKN020 OVC080
     FM301100 20005KT P6SM SCT008 BKN015 OVC080
     FM301500 15005KT P6SM SCT030 OVC050
     FM310000 20014KT P6SM OVC050
     FM310400 19014KT 6SM -RA BKN020 OVC040=



000
FTUS46 KPQR 300524
TAFHIO
TAF
KHIO 300524Z 3006/3106 VRB03KT P6SM BKN200
     FM302200 18008KT P6SM SCT060 BKN100
     FM310300 18010KT P6SM -RA SCT040 OVC060=



000
FTUS46 KPQR 300524
TAFEUG
TAF
KEUG 300524Z 3006/3106 VRB04KT P6SM FEW150
     FM301400 21004KT P6SM FEW015
     FM302000 18009KT P6SM SCT200=



000
FTUS46 KPQR 300524
TAFTTD
TAF
KTTD 300524Z 3006/3106 VRB04KT P6SM BKN200
     FM310400 19006KT P6SM -RA SCT040 OVC060=



000
FTUS46 KPQR 300524
TAFSLE
TAF
KSLE 300524Z 3006/3106 VRB03KT P6SM SCT200
     FM302000 18008KT P6SM SCT015 BKN200
     FM310400 18012KT P6SM -RA SCT040 OVC060=



000
FTUS46 KPQR 300524
TAFEUG
TAF
KEUG 300524Z 3006/3106 VRB04KT P6SM FEW150
     FM301400 21004KT P6SM FEW015
     FM302000 18009KT P6SM SCT200=



000
FTUS46 KPQR 300524
TAFPDX
TAF
KPDX 300524Z 3006/3106 VRB04KT P6SM SCT200
     FM302100 17009KT P6SM BKN150
     FM310400 18010KT P6SM -RA SCT040 OVC060=



000
FTUS46 KPQR 300524
TAFPDX
TAF
KPDX 300524Z 3006/3106 VRB04KT P6SM SCT200
     FM302100 17009KT P6SM BKN150
     FM310400 18010KT P6SM -RA SCT040 OVC060=



000
FTUS46 KPQR 300524
TAFSLE
TAF
KSLE 300524Z 3006/3106 VRB03KT P6SM SCT200
     FM302000 18008KT P6SM SCT015 BKN200
     FM310400 18012KT P6SM -RA SCT040 OVC060=



000
FTUS46 KPQR 300524
TAFONP
TAF
KONP 300524Z 3006/3106 29003KT P6SM OVC008
     FM301100 VRB03KT 3SM BR OVC005
     FM301800 15003KT P6SM SCT009 BKN020
     FM310200 20014KT P6SM -RA OVC050
     FM310400 20014KT 6SM -RA BKN012 OVC020=



000
FTUS46 KPQR 300524
TAFSLE
TAF
KSLE 300524Z 3006/3106 VRB03KT P6SM SCT200
     FM302000 18008KT P6SM SCT015 BKN200
     FM310400 18012KT P6SM -RA SCT040 OVC060=



000
FTUS46 KPQR 300524
TAFPDX
TAF
KPDX 300524Z 3006/3106 VRB04KT P6SM SCT200
     FM302100 17009KT P6SM BKN150
     FM310400 18010KT P6SM -RA SCT040 OVC060=



000
FTUS46 KPQR 300524
TAFEUG
TAF
KEUG 300524Z 3006/3106 VRB04KT P6SM FEW150
     FM301400 21004KT P6SM FEW015
     FM302000 18009KT P6SM SCT200=



000
FTUS46 KPQR 300524
TAFAST
TAF
KAST 300524Z 3006/3106 20005KT P6SM BKN020 OVC080
     FM301100 20005KT P6SM SCT008 BKN015 OVC080
     FM301500 15005KT P6SM SCT030 OVC050
     FM310000 20014KT P6SM OVC050
     FM310400 19014KT 6SM -RA BKN020 OVC040=



000
FTUS46 KPQR 300524
TAFTTD
TAF
KTTD 300524Z 3006/3106 VRB04KT P6SM BKN200
     FM310400 19006KT P6SM -RA SCT040 OVC060=



000
FTUS46 KPQR 300524
TAFONP
TAF
KONP 300524Z 3006/3106 29003KT P6SM OVC008
     FM301100 VRB03KT 3SM BR OVC005
     FM301800 15003KT P6SM SCT009 BKN020
     FM310200 20014KT P6SM -RA OVC050
     FM310400 20014KT 6SM -RA BKN012 OVC020=



000
FTUS46 KPQR 300524
TAFTTD
TAF
KTTD 300524Z 3006/3106 VRB04KT P6SM BKN200
     FM310400 19006KT P6SM -RA SCT040 OVC060=



000
FTUS46 KPQR 300524
TAFHIO
TAF
KHIO 300524Z 3006/3106 VRB03KT P6SM BKN200
     FM302200 18008KT P6SM SCT060 BKN100
     FM310300 18010KT P6SM -RA SCT040 OVC060=



000
FTUS46 KPQR 300524
TAFONP
TAF
KONP 300524Z 3006/3106 29003KT P6SM OVC008
     FM301100 VRB03KT 3SM BR OVC005
     FM301800 15003KT P6SM SCT009 BKN020
     FM310200 20014KT P6SM -RA OVC050
     FM310400 20014KT 6SM -RA BKN012 OVC020=



000
FTUS46 KPQR 300524
TAFSLE
TAF
KSLE 300524Z 3006/3106 VRB03KT P6SM SCT200
     FM302000 18008KT P6SM SCT015 BKN200
     FM310400 18012KT P6SM -RA SCT040 OVC060=



000
FTUS46 KPQR 300258 AAA
TAFPDX
TAF AMD
KPDX 300258Z 3003/3024 VRB03KT P6SM SCT200
     FM302100 17009KT P6SM BKN150=



000
FTUS46 KPQR 300258 AAA
TAFPDX
TAF AMD
KPDX 300258Z 3003/3024 VRB03KT P6SM SCT200
     FM302100 17009KT P6SM BKN150=



000
FTUS46 KPQR 300220 AAA
TAFONP
TAF AMD
KONP 300220Z 3002/3024 29006KT P6SM OVC008
     FM301100 VRB03KT 3SM BR OVC005
     FM301800 15003KT P6SM SCT005 BKN150=



000
FTUS46 KPQR 300220 AAA
TAFONP
TAF AMD
KONP 300220Z 3002/3024 29006KT P6SM OVC008
     FM301100 VRB03KT 3SM BR OVC005
     FM301800 15003KT P6SM SCT005 BKN150=



000
FTUS46 KPQR 300220 AAA
TAFONP
TAF AMD
KONP 300220Z 3002/3024 29006KT P6SM OVC008
     FM301100 VRB03KT 3SM BR OVC005
     FM301800 15003KT P6SM SCT005 BKN150=



000
FTUS46 KPQR 300220 AAA
TAFONP
TAF AMD
KONP 300220Z 3002/3024 29006KT P6SM OVC008
     FM301100 VRB03KT 3SM BR OVC005
     FM301800 15003KT P6SM SCT005 BKN150=



000
FTUS46 KPQR 292330
TAFEUG
TAF
KEUG 292330Z 3000/3024 02007KT P6SM FEW045 SCT200
     FM300300 VRB03KT P6SM SCT200
     FM302000 18009KT P6SM SCT200=



000
FTUS46 KPQR 292330
TAFONP
TAF
KONP 292330Z 3000/3024 29006KT P6SM SCT008
      TEMPO 3000/3003 BKN008
     FM301300 VRB03KT 4SM BR BKN005 BKN150
     FM301800 15003KT P6SM SCT005 BKN150=



000
FTUS46 KPQR 292330
TAFSLE
TAF
KSLE 292330Z 3000/3024 VRB03KT P6SM FEW035 SCT150
     FM302000 18008KT P6SM SCT015 BKN200=



000
FTUS46 KPQR 292330
TAFHIO
TAF
KHIO 292330Z 3000/3024 VRB03KT P6SM BKN200
     FM302200 18008KT P6SM SCT060 BKN100=



000
FTUS46 KPQR 292330
TAFTTD
TAF
KTTD 292330Z 3000/3024 VRB04KT P6SM BKN200=



000
FTUS46 KPQR 292330
TAFAST
TAF
KAST 292330Z 3000/3024 21010KT P6SM SCT030 OVC060
     FM300300 18006KT P6SM SCT015 BKN030 OVC060
     FM301500 15005KT P6SM SCT030 OVC050=



000
FTUS46 KPQR 292330
TAFPDX
TAF
KPDX 292330Z 3000/3024 VRB03KT P6SM BKN200
     FM302100 17009KT P6SM BKN150=



000
FTUS46 KPQR 292330
TAFSLE
TAF
KSLE 292330Z 3000/3024 VRB03KT P6SM FEW035 SCT150
     FM302000 18008KT P6SM SCT015 BKN200=



000
FTUS46 KPQR 292330
TAFPDX
TAF
KPDX 292330Z 3000/3024 VRB03KT P6SM BKN200
     FM302100 17009KT P6SM BKN150=



000
FTUS46 KPQR 292330
TAFHIO
TAF
KHIO 292330Z 3000/3024 VRB03KT P6SM BKN200
     FM302200 18008KT P6SM SCT060 BKN100=



000
FTUS46 KPQR 292330
TAFTTD
TAF
KTTD 292330Z 3000/3024 VRB04KT P6SM BKN200=



000
FTUS46 KPQR 292330
TAFEUG
TAF
KEUG 292330Z 3000/3024 02007KT P6SM FEW045 SCT200
     FM300300 VRB03KT P6SM SCT200
     FM302000 18009KT P6SM SCT200=



000
FTUS46 KPQR 292330
TAFAST
TAF
KAST 292330Z 3000/3024 21010KT P6SM SCT030 OVC060
     FM300300 18006KT P6SM SCT015 BKN030 OVC060
     FM301500 15005KT P6SM SCT030 OVC050=



000
FTUS46 KPQR 292330
TAFONP
TAF
KONP 292330Z 3000/3024 29006KT P6SM SCT008
      TEMPO 3000/3003 BKN008
     FM301300 VRB03KT 4SM BR BKN005 BKN150
     FM301800 15003KT P6SM SCT005 BKN150=



000
FTUS46 KPQR 292051 AAA
TAFPDX
TAF AMD
KPDX 292051Z 2921/3018 04006KT P6SM SCT090
     FM300800 19004KT P6SM BKN180
     FM301300 13004KT P6SM BKN100
     FM301700 17009KT P6SM BKN150=



000
FTUS46 KPQR 292051 AAA
TAFPDX
TAF AMD
KPDX 292051Z 2921/3018 04006KT P6SM SCT090
     FM300800 19004KT P6SM BKN180
     FM301300 13004KT P6SM BKN100
     FM301700 17009KT P6SM BKN150=



000
FTUS46 KPQR 292051 AAA
TAFPDX
TAF AMD
KPDX 292051Z 2921/3018 04006KT P6SM SCT090
     FM300800 19004KT P6SM BKN180
     FM301300 13004KT P6SM BKN100
     FM301700 17009KT P6SM BKN150=



000
FTUS46 KPQR 292051 AAA
TAFPDX
TAF AMD
KPDX 292051Z 2921/3018 04006KT P6SM SCT090
     FM300800 19004KT P6SM BKN180
     FM301300 13004KT P6SM BKN100
     FM301700 17009KT P6SM BKN150=



000
FTUS46 KPQR 291720
TAFONP
TAF
KONP 291720Z 2918/3018 08005KT P6SM SKC
     FM292200 20006KT P6SM SCT050 BKN150
     FM301300 15003KT P6SM SCT015 BKN150=



000
FTUS46 KPQR 291720
TAFTTD
TAF
KTTD 291720Z 2918/3018 06004KT P6SM SCT150
     FM292000 16006KT P6SM SCT150
     FM300400 VRB02KT P6SM SCT150
     FM301600 09005KT P6SM SCT100 BKN200=



000
FTUS46 KPQR 291720
TAFAST
TAF
KAST 291720Z 2918/3018 17004KT P6SM BKN090
     FM292000 21010KT P6SM SCT060 BKN100
     FM300300 18006KT P6SM SCT015 BKN030
     FM301700 15005KT P6SM SCT030 OVC050=



000
FTUS46 KPQR 291720
TAFPDX
TAF
KPDX 291720Z 2918/3018 09006KT P6SM SCT090
     FM291900 20006KT P6SM SCT100
     FM300800 19004KT P6SM BKN150=



000
FTUS46 KPQR 291720
TAFONP
TAF
KONP 291720Z 2918/3018 08005KT P6SM SKC
     FM292200 20006KT P6SM SCT050 BKN150
     FM301300 15003KT P6SM SCT015 BKN150=



000
FTUS46 KPQR 291720
TAFSLE
TAF
KSLE 291720Z 2918/3018 VRB03KT P6SM SCT150
     FM292000 20006KT P6SM SCT200
     FM301500 16003KT P6SM SCT015 BKN200=



000
FTUS46 KPQR 291720
TAFTTD
TAF
KTTD 291720Z 2918/3018 06004KT P6SM SCT150
     FM292000 16006KT P6SM SCT150
     FM300400 VRB02KT P6SM SCT150
     FM301600 09005KT P6SM SCT100 BKN200=



000
FTUS46 KPQR 291720
TAFAST
TAF
KAST 291720Z 2918/3018 17004KT P6SM BKN090
     FM292000 21010KT P6SM SCT060 BKN100
     FM300300 18006KT P6SM SCT015 BKN030
     FM301700 15005KT P6SM SCT030 OVC050=



000
FTUS46 KPQR 291720
TAFPDX
TAF
KPDX 291720Z 2918/3018 09006KT P6SM SCT090
     FM291900 20006KT P6SM SCT100
     FM300800 19004KT P6SM BKN150=



000
FTUS46 KPQR 291720
TAFSLE
TAF
KSLE 291720Z 2918/3018 VRB03KT P6SM SCT150
     FM292000 20006KT P6SM SCT200
     FM301500 16003KT P6SM SCT015 BKN200=



000
FTUS46 KPQR 291720
TAFHIO
TAF
KHIO 291720Z 2918/3018 21004KT P6SM SCT150
     FM300200 29004KT P6SM BKN150
     FM301500 18003KT P6SM SCT060 BKN100=



000
FTUS46 KPQR 291720
TAFEUG
TAF
KEUG 291720Z 2918/3018 21003KT P6SM SCT200
     FM292000 31005KT P6SM SCT200
     FM300600 20004KT P6SM SCT200
     FM301500 19002KT P6SM SCT080 BKN200=



000
FTUS46 KPQR 291720
TAFTTD
TAF
KTTD 291720Z 2918/3018 06004KT P6SM SCT150
     FM292000 16006KT P6SM SCT150
     FM300400 VRB02KT P6SM SCT150
     FM301600 09005KT P6SM SCT100 BKN200=



000
FTUS46 KPQR 291720
TAFONP
TAF
KONP 291720Z 2918/3018 08005KT P6SM SKC
     FM292200 20006KT P6SM SCT050 BKN150
     FM301300 15003KT P6SM SCT015 BKN150=



000
FTUS46 KPQR 291720
TAFPDX
TAF
KPDX 291720Z 2918/3018 09006KT P6SM SCT090
     FM291900 20006KT P6SM SCT100
     FM300800 19004KT P6SM BKN150=



000
FTUS46 KPQR 291720
TAFTTD
TAF
KTTD 291720Z 2918/3018 06004KT P6SM SCT150
     FM292000 16006KT P6SM SCT150
     FM300400 VRB02KT P6SM SCT150
     FM301600 09005KT P6SM SCT100 BKN200=



000
FTUS46 KPQR 291720
TAFPDX
TAF
KPDX 291720Z 2918/3018 09006KT P6SM SCT090
     FM291900 20006KT P6SM SCT100
     FM300800 19004KT P6SM BKN150=



000
FTUS46 KPQR 291720
TAFSLE
TAF
KSLE 291720Z 2918/3018 VRB03KT P6SM SCT150
     FM292000 20006KT P6SM SCT200
     FM301500 16003KT P6SM SCT015 BKN200=



000
FTUS46 KPQR 291720
TAFHIO
TAF
KHIO 291720Z 2918/3018 21004KT P6SM SCT150
     FM300200 29004KT P6SM BKN150
     FM301500 18003KT P6SM SCT060 BKN100=



000
FTUS46 KPQR 291720
TAFSLE
TAF
KSLE 291720Z 2918/3018 VRB03KT P6SM SCT150
     FM292000 20006KT P6SM SCT200
     FM301500 16003KT P6SM SCT015 BKN200=



000
FTUS46 KPQR 291720
TAFEUG
TAF
KEUG 291720Z 2918/3018 21003KT P6SM SCT200
     FM292000 31005KT P6SM SCT200
     FM300600 20004KT P6SM SCT200
     FM301500 19002KT P6SM SCT080 BKN200=



000
FTUS46 KPQR 291720
TAFAST
TAF
KAST 291720Z 2918/3018 17004KT P6SM BKN090
     FM292000 21010KT P6SM SCT060 BKN100
     FM300300 18006KT P6SM SCT015 BKN030
     FM301700 15005KT P6SM SCT030 OVC050=



000
FTUS46 KPQR 291720
TAFONP
TAF
KONP 291720Z 2918/3018 08005KT P6SM SKC
     FM292200 20006KT P6SM SCT050 BKN150
     FM301300 15003KT P6SM SCT015 BKN150=



000
FTUS46 KPQR 291720
TAFAST
TAF
KAST 291720Z 2918/3018 17004KT P6SM BKN090
     FM292000 21010KT P6SM SCT060 BKN100
     FM300300 18006KT P6SM SCT015 BKN030
     FM301700 15005KT P6SM SCT030 OVC050=



000
FTUS46 KPQR 291720
TAFEUG
TAF
KEUG 291720Z 2918/3018 21003KT P6SM SCT200
     FM292000 31005KT P6SM SCT200
     FM300600 20004KT P6SM SCT200
     FM301500 19002KT P6SM SCT080 BKN200=



000
FTUS46 KPQR 291720
TAFHIO
TAF
KHIO 291720Z 2918/3018 21004KT P6SM SCT150
     FM300200 29004KT P6SM BKN150
     FM301500 18003KT P6SM SCT060 BKN100=



000
FTUS46 KPQR 291720
TAFHIO
TAF
KHIO 291720Z 2918/3018 21004KT P6SM SCT150
     FM300200 29004KT P6SM BKN150
     FM301500 18003KT P6SM SCT060 BKN100=



000
FTUS46 KPQR 291720
TAFEUG
TAF
KEUG 291720Z 2918/3018 21003KT P6SM SCT200
     FM292000 31005KT P6SM SCT200
     FM300600 20004KT P6SM SCT200
     FM301500 19002KT P6SM SCT080 BKN200=



000
FTUS46 KPQR 291453 AAA
TAFPDX
TAF AMD
KPDX 291453Z 2915/3012 14005KT P6SM SCT090
     FM291900 20006KT P6SM SCT200
     FM300800 14003KT P6SM BKN100=



000
FTUS46 KPQR 291453 AAA
TAFPDX
TAF AMD
KPDX 291453Z 2915/3012 14005KT P6SM SCT090
     FM291900 20006KT P6SM SCT200
     FM300800 14003KT P6SM BKN100=



000
FTUS46 KPQR 291453 AAA
TAFPDX
TAF AMD
KPDX 291453Z 2915/3012 14005KT P6SM SCT090
     FM291900 20006KT P6SM SCT200
     FM300800 14003KT P6SM BKN100=



000
FTUS46 KPQR 291453 AAA
TAFPDX
TAF AMD
KPDX 291453Z 2915/3012 14005KT P6SM SCT090
     FM291900 20006KT P6SM SCT200
     FM300800 14003KT P6SM BKN100=



000
FTUS46 KPQR 291214 AAA
TAFONP
TAF AMD
KONP 291214Z 2912/3012 VRB03KT P6SM SKC
      TEMPO 2912/2915 5SM BR
     FM291800 22006KT P6SM SCT050 OVC150
     FM300000 23005KT P6SM SCT015 BKN150=



000
FTUS46 KPQR 291214 AAA
TAFONP
TAF AMD
KONP 291214Z 2912/3012 VRB03KT P6SM SKC
      TEMPO 2912/2915 5SM BR
     FM291800 22006KT P6SM SCT050 OVC150
     FM300000 23005KT P6SM SCT015 BKN150=



000
FTUS46 KPQR 291214 AAA
TAFONP
TAF AMD
KONP 291214Z 2912/3012 VRB03KT P6SM SKC
      TEMPO 2912/2915 5SM BR
     FM291800 22006KT P6SM SCT050 OVC150
     FM300000 23005KT P6SM SCT015 BKN150=



000
FTUS46 KPQR 291121
TAFPDX
TAF
KPDX 291121Z 2912/3012 12004KT P6SM BKN090 OVC110
     FM291900 22005KT P6SM BKN250=



000
FTUS46 KPQR 291121
TAFEUG
TAF
KEUG 291121Z 2912/3012 VRB03KT P6SM BKN200
     FM292000 27005KT P6SM SCT200=



000
FTUS46 KPQR 291121
TAFAST
TAF
KAST 291121Z 2912/3012 17004KT P6SM BKN090
     FM291800 21010KT P6SM SCT040 OVC060
     FM300300 20005KT P6SM SCT015 BKN030=



000
FTUS46 KPQR 291121
TAFHIO
TAF
KHIO 291121Z 2912/3012 VRB02KT P6SM BKN090 OVC110
     FM291800 21004KT P6SM SCT150 BKN250
     FM300200 29004KT P6SM BKN250=



000
FTUS46 KPQR 291121
TAFAST
TAF
KAST 291121Z 2912/3012 17004KT P6SM BKN090
     FM291800 21010KT P6SM SCT040 OVC060
     FM300300 20005KT P6SM SCT015 BKN030=



000
FTUS46 KPQR 291121
TAFHIO
TAF
KHIO 291121Z 2912/3012 VRB02KT P6SM BKN090 OVC110
     FM291800 21004KT P6SM SCT150 BKN250
     FM300200 29004KT P6SM BKN250=



000
FTUS46 KPQR 291121
TAFEUG
TAF
KEUG 291121Z 2912/3012 VRB03KT P6SM BKN200
     FM292000 27005KT P6SM SCT200=



000
FTUS46 KPQR 291121
TAFSLE
TAF
KSLE 291121Z 2912/3012 VRB03KT P6SM BKN100
     FM291700 20005KT P6SM BKN200=



000
FTUS46 KPQR 291121
TAFONP
TAF
KONP 291121Z 2912/3012 VRB03KT P6SM SCT120 BKN200
     FM291800 22006KT P6SM SCT050 OVC150
     FM300000 23005KT P6SM SCT015 BKN150=



000
FTUS46 KPQR 291121
TAFHIO
TAF
KHIO 291121Z 2912/3012 VRB02KT P6SM BKN090 OVC110
     FM291800 21004KT P6SM SCT150 BKN250
     FM300200 29004KT P6SM BKN250=



000
FTUS46 KPQR 291121
TAFONP
TAF
KONP 291121Z 2912/3012 VRB03KT P6SM SCT120 BKN200
     FM291800 22006KT P6SM SCT050 OVC150
     FM300000 23005KT P6SM SCT015 BKN150=



000
FTUS46 KPQR 291121
TAFEUG
TAF
KEUG 291121Z 2912/3012 VRB03KT P6SM BKN200
     FM292000 27005KT P6SM SCT200=



000
FTUS46 KPQR 291121
TAFTTD
TAF
KTTD 291121Z 2912/3012 VRB03KT P6SM BKN110
     FM292000 23004KT P6SM BKN250=



000
FTUS46 KPQR 291121
TAFAST
TAF
KAST 291121Z 2912/3012 17004KT P6SM BKN090
     FM291800 21010KT P6SM SCT040 OVC060
     FM300300 20005KT P6SM SCT015 BKN030=



000
FTUS46 KPQR 291121
TAFAST
TAF
KAST 291121Z 2912/3012 17004KT P6SM BKN090
     FM291800 21010KT P6SM SCT040 OVC060
     FM300300 20005KT P6SM SCT015 BKN030=



000
FTUS46 KPQR 291121
TAFONP
TAF
KONP 291121Z 2912/3012 VRB03KT P6SM SCT120 BKN200
     FM291800 22006KT P6SM SCT050 OVC150
     FM300000 23005KT P6SM SCT015 BKN150=



000
FTUS46 KPQR 291121
TAFTTD
TAF
KTTD 291121Z 2912/3012 VRB03KT P6SM BKN110
     FM292000 23004KT P6SM BKN250=



000
FTUS46 KPQR 291121
TAFONP
TAF
KONP 291121Z 2912/3012 VRB03KT P6SM SCT120 BKN200
     FM291800 22006KT P6SM SCT050 OVC150
     FM300000 23005KT P6SM SCT015 BKN150=



000
FTUS46 KPQR 291121
TAFPDX
TAF
KPDX 291121Z 2912/3012 12004KT P6SM BKN090 OVC110
     FM291900 22005KT P6SM BKN250=



000
FTUS46 KPQR 291121
TAFSLE
TAF
KSLE 291121Z 2912/3012 VRB03KT P6SM BKN100
     FM291700 20005KT P6SM BKN200=



000
FTUS46 KPQR 291121
TAFTTD
TAF
KTTD 291121Z 2912/3012 VRB03KT P6SM BKN110
     FM292000 23004KT P6SM BKN250=



000
FTUS46 KPQR 291121
TAFSLE
TAF
KSLE 291121Z 2912/3012 VRB03KT P6SM BKN100
     FM291700 20005KT P6SM BKN200=



000
FTUS46 KPQR 291121
TAFPDX
TAF
KPDX 291121Z 2912/3012 12004KT P6SM BKN090 OVC110
     FM291900 22005KT P6SM BKN250=



000
FTUS46 KPQR 290851 AAA
TAFPDX
TAF AMD
KPDX 290851Z 2909/3006 09004KT P6SM OVC110
     FM292300 24005KT P6SM BKN250=



000
FTUS46 KPQR 290851 AAA
TAFPDX
TAF AMD
KPDX 290851Z 2909/3006 09004KT P6SM OVC110
     FM292300 24005KT P6SM BKN250=



000
FTUS46 KPQR 290851 AAA
TAFPDX
TAF AMD
KPDX 290851Z 2909/3006 09004KT P6SM OVC110
     FM292300 24005KT P6SM BKN250=



000
FTUS46 KPQR 290851 AAA
TAFPDX
TAF AMD
KPDX 290851Z 2909/3006 09004KT P6SM OVC110
     FM292300 24005KT P6SM BKN250=



000
FTUS46 KPQR 290523
TAFHIO
TAF
KHIO 290523Z 2906/3006 VRB03KT P6SM SCT150 BKN250
     FM300200 27007KT P6SM BKN250=



000
FTUS46 KPQR 290523
TAFPDX
TAF
KPDX 290523Z 2906/3006 09005KT P6SM SCT150 BKN250
     FM292300 27007KT P6SM BKN250=



000
FTUS46 KPQR 290523
TAFTTD
TAF
KTTD 290523Z 2906/3006 VRB03KT P6SM SCT150 BKN250
     FM292300 25005KT P6SM BKN250=



000
FTUS46 KPQR 290523
TAFAST
TAF
KAST 290523Z 2906/3006 20004KT P6SM BKN120
     FM291100 17004KT P6SM OVC060
     FM291800 21010KT P6SM SCT040 OVC060
     FM300300 20005KT P6SM SCT015 BKN060=



000
FTUS46 KPQR 290523
TAFPDX
TAF
KPDX 290523Z 2906/3006 09005KT P6SM SCT150 BKN250
     FM292300 27007KT P6SM BKN250=



000
FTUS46 KPQR 290523
TAFSLE
TAF
KSLE 290523Z 2906/3006 VRB02KT P6SM BKN200
     FM292300 29007KT P6SM BKN200=



000
FTUS46 KPQR 290523
TAFHIO
TAF
KHIO 290523Z 2906/3006 VRB03KT P6SM SCT150 BKN250
     FM300200 27007KT P6SM BKN250=



000
FTUS46 KPQR 290523
TAFONP
TAF
KONP 290523Z 2906/3006 VRB03KT P6SM SCT120 BKN200
     FM291800 22006KT P6SM SCT050 OVC150
     FM300000 23005KT P6SM SCT015 BKN060=



000
FTUS46 KPQR 290523
TAFEUG
TAF
KEUG 290523Z 2906/3006 03003KT P6SM BKN200
     FM292300 29006KT P6SM SCT200=



000
FTUS46 KPQR 290523
TAFSLE
TAF
KSLE 290523Z 2906/3006 VRB02KT P6SM BKN200
     FM292300 29007KT P6SM BKN200=



000
FTUS46 KPQR 290523
TAFAST
TAF
KAST 290523Z 2906/3006 20004KT P6SM BKN120
     FM291100 17004KT P6SM OVC060
     FM291800 21010KT P6SM SCT040 OVC060
     FM300300 20005KT P6SM SCT015 BKN060=



000
FTUS46 KPQR 290523
TAFTTD
TAF
KTTD 290523Z 2906/3006 VRB03KT P6SM SCT150 BKN250
     FM292300 25005KT P6SM BKN250=



000
FTUS46 KPQR 290523
TAFEUG
TAF
KEUG 290523Z 2906/3006 03003KT P6SM BKN200
     FM292300 29006KT P6SM SCT200=



000
FTUS46 KPQR 290523
TAFHIO
TAF
KHIO 290523Z 2906/3006 VRB03KT P6SM SCT150 BKN250
     FM300200 27007KT P6SM BKN250=



000
FTUS46 KPQR 290523
TAFONP
TAF
KONP 290523Z 2906/3006 VRB03KT P6SM SCT120 BKN200
     FM291800 22006KT P6SM SCT050 OVC150
     FM300000 23005KT P6SM SCT015 BKN060=



000
FTUS46 KPQR 290523
TAFPDX
TAF
KPDX 290523Z 2906/3006 09005KT P6SM SCT150 BKN250
     FM292300 27007KT P6SM BKN250=



000
FTUS46 KPQR 290523
TAFHIO
TAF
KHIO 290523Z 2906/3006 VRB03KT P6SM SCT150 BKN250
     FM300200 27007KT P6SM BKN250=



000
FTUS46 KPQR 290523
TAFPDX
TAF
KPDX 290523Z 2906/3006 09005KT P6SM SCT150 BKN250
     FM292300 27007KT P6SM BKN250=



000
FTUS46 KPQR 290523
TAFSLE
TAF
KSLE 290523Z 2906/3006 VRB02KT P6SM BKN200
     FM292300 29007KT P6SM BKN200=



000
FTUS46 KPQR 290523
TAFTTD
TAF
KTTD 290523Z 2906/3006 VRB03KT P6SM SCT150 BKN250
     FM292300 25005KT P6SM BKN250=



000
FTUS46 KPQR 290523
TAFEUG
TAF
KEUG 290523Z 2906/3006 03003KT P6SM BKN200
     FM292300 29006KT P6SM SCT200=



000
FTUS46 KPQR 290523
TAFONP
TAF
KONP 290523Z 2906/3006 VRB03KT P6SM SCT120 BKN200
     FM291800 22006KT P6SM SCT050 OVC150
     FM300000 23005KT P6SM SCT015 BKN060=



000
FTUS46 KPQR 290523
TAFAST
TAF
KAST 290523Z 2906/3006 20004KT P6SM BKN120
     FM291100 17004KT P6SM OVC060
     FM291800 21010KT P6SM SCT040 OVC060
     FM300300 20005KT P6SM SCT015 BKN060=



000
FTUS46 KPQR 290523
TAFSLE
TAF
KSLE 290523Z 2906/3006 VRB02KT P6SM BKN200
     FM292300 29007KT P6SM BKN200=



000
FTUS46 KPQR 290523
TAFONP
TAF
KONP 290523Z 2906/3006 VRB03KT P6SM SCT120 BKN200
     FM291800 22006KT P6SM SCT050 OVC150
     FM300000 23005KT P6SM SCT015 BKN060=



000
FTUS46 KPQR 290523
TAFAST
TAF
KAST 290523Z 2906/3006 20004KT P6SM BKN120
     FM291100 17004KT P6SM OVC060
     FM291800 21010KT P6SM SCT040 OVC060
     FM300300 20005KT P6SM SCT015 BKN060=



000
FTUS46 KPQR 290523
TAFEUG
TAF
KEUG 290523Z 2906/3006 03003KT P6SM BKN200
     FM292300 29006KT P6SM SCT200=



000
FTUS46 KPQR 290523
TAFTTD
TAF
KTTD 290523Z 2906/3006 VRB03KT P6SM SCT150 BKN250
     FM292300 25005KT P6SM BKN250=



000
FTUS46 KPQR 290304 AAA
TAFPDX
TAF AMD
KPDX 290304Z 2903/2924 VRB03KT P6SM BKN150
     FM291600 24005KT P6SM SCT080 SCT200=



000
FTUS46 KPQR 290304 AAA
TAFPDX
TAF AMD
KPDX 290304Z 2903/2924 VRB03KT P6SM BKN150
     FM291600 24005KT P6SM SCT080 SCT200=



000
FTUS46 KPQR 290304 AAA
TAFPDX
TAF AMD
KPDX 290304Z 2903/2924 VRB03KT P6SM BKN150
     FM291600 24005KT P6SM SCT080 SCT200=



000
FTUS46 KPQR 290304 AAA
TAFPDX
TAF AMD
KPDX 290304Z 2903/2924 VRB03KT P6SM BKN150
     FM291600 24005KT P6SM SCT080 SCT200=



000
FTUS46 KPQR 282327
TAFAST
TAF
KAST 282327Z 2900/2924 22012G17KT P6SM OVC050
     FM290200 20007KT P6SM SCT045 OVC100
     FM291100 17004KT P6SM OVC060
     FM291800 21008KT P6SM SCT040 OVC060=



000
FTUS46 KPQR 282327
TAFTTD
TAF
KTTD 282327Z 2900/2924 22010KT P6SM SCT050 BKN200
     FM290200 VRB02KT P6SM SCT050 BKN100
     FM291200 VRB02KT P6SM OVC100
     FM291700 22005KT P6SM SCT080 BKN200=



000
FTUS46 KPQR 282327
TAFEUG
TAF
KEUG 282327Z 2900/2924 23005KT P6SM SCT040 SCT250
     FM290400 22003KT P6SM BKN250
     FM291000 VRB02KT P6SM OVC200
     FM291700 23005KT P6SM SCT060 SCT200=



000
FTUS46 KPQR 282327
TAFSLE
TAF
KSLE 282327Z 2900/2924 21007KT P6SM SCT080 BKN200
     FM290800 VRB02KT P6SM BKN200
     FM291700 19006KT P6SM SCT080 BKN200=



000
FTUS46 KPQR 282327
TAFAST
TAF
KAST 282327Z 2900/2924 22012G17KT P6SM OVC050
     FM290200 20007KT P6SM SCT045 OVC100
     FM291100 17004KT P6SM OVC060
     FM291800 21008KT P6SM SCT040 OVC060=



000
FTUS46 KPQR 282327
TAFONP
TAF
KONP 282327Z 2900/2924 22011KT P6SM BKN050
     FM290200 24007KT P6SM SCT050 BKN100
     FM290700 18005KT P6SM BKN060
     FM291800 22006KT P6SM SCT050 OVC150=



000
FTUS46 KPQR 282327
TAFEUG
TAF
KEUG 282327Z 2900/2924 23005KT P6SM SCT040 SCT250
     FM290400 22003KT P6SM BKN250
     FM291000 VRB02KT P6SM OVC200
     FM291700 23005KT P6SM SCT060 SCT200=



000
FTUS46 KPQR 282327
TAFSLE
TAF
KSLE 282327Z 2900/2924 21007KT P6SM SCT080 BKN200
     FM290800 VRB02KT P6SM BKN200
     FM291700 19006KT P6SM SCT080 BKN200=



000
FTUS46 KPQR 282327
TAFTTD
TAF
KTTD 282327Z 2900/2924 22010KT P6SM SCT050 BKN200
     FM290200 VRB02KT P6SM SCT050 BKN100
     FM291200 VRB02KT P6SM OVC100
     FM291700 22005KT P6SM SCT080 BKN200=



000
FTUS46 KPQR 282327
TAFPDX
TAF
KPDX 282327Z 2900/2924 22007KT P6SM BKN060 BKN150
     FM290600 VRB03KT P6SM BKN150
     FM291600 24005KT P6SM SCT080 SCT200=



000
FTUS46 KPQR 282327
TAFHIO
TAF
KHIO 282327Z 2900/2924 19011KT P6SM BKN045 BKN150
     FM290400 25005KT P6SM OVC100
     FM291200 VRB02KT P6SM OVC100
     FM291800 22005KT P6SM SCT060 BKN080=



000
FTUS46 KPQR 282327
TAFPDX
TAF
KPDX 282327Z 2900/2924 22007KT P6SM BKN060 BKN150
     FM290600 VRB03KT P6SM BKN150
     FM291600 24005KT P6SM SCT080 SCT200=



000
FTUS46 KPQR 282327
TAFONP
TAF
KONP 282327Z 2900/2924 22011KT P6SM BKN050
     FM290200 24007KT P6SM SCT050 BKN100
     FM290700 18005KT P6SM BKN060
     FM291800 22006KT P6SM SCT050 OVC150=



000
FTUS46 KPQR 282327
TAFHIO
TAF
KHIO 282327Z 2900/2924 19011KT P6SM BKN045 BKN150
     FM290400 25005KT P6SM OVC100
     FM291200 VRB02KT P6SM OVC100
     FM291800 22005KT P6SM SCT060 BKN080=



000
FTUS46 KPQR 282051 AAA
TAFPDX
TAF AMD
KPDX 282051Z 2821/2918 18009KT P6SM SCT040 BKN060 BKN150
     FM290000 20007KT P6SM BKN050 BKN150
     FM290600 VRB03KT P6SM BKN150=



000
FTUS46 KPQR 282051 AAA
TAFPDX
TAF AMD
KPDX 282051Z 2821/2918 18009KT P6SM SCT040 BKN060 BKN150
     FM290000 20007KT P6SM BKN050 BKN150
     FM290600 VRB03KT P6SM BKN150=



000
FTUS46 KPQR 282051 AAA
TAFPDX
TAF AMD
KPDX 282051Z 2821/2918 18009KT P6SM SCT040 BKN060 BKN150
     FM290000 20007KT P6SM BKN050 BKN150
     FM290600 VRB03KT P6SM BKN150=



000
FTUS46 KPQR 282051 AAA
TAFPDX
TAF AMD
KPDX 282051Z 2821/2918 18009KT P6SM SCT040 BKN060 BKN150
     FM290000 20007KT P6SM BKN050 BKN150
     FM290600 VRB03KT P6SM BKN150=



000
FTUS46 KPQR 281723
TAFPDX
TAF
KPDX 281723Z 2818/2918 20010KT P6SM BKN060 BKN150
     FM290000 20010KT P6SM SCT050 BKN150
     FM290600 VRB03KT P6SM BKN150=



000
FTUS46 KPQR 281723
TAFTTD
TAF
KTTD 281723Z 2818/2918 22010KT P6SM SCT050 BKN200
     FM290200 VRB02KT P6SM SCT050 BKN100
     FM291200 VRB02KT P6SM OVC100=



000
FTUS46 KPQR 281723
TAFTTD
TAF
KTTD 281723Z 2818/2918 22010KT P6SM SCT050 BKN200
     FM290200 VRB02KT P6SM SCT050 BKN100
     FM291200 VRB02KT P6SM OVC100=



000
FTUS46 KPQR 281723
TAFHIO
TAF
KHIO 281723Z 2818/2918 19011KT P6SM SCT020 BKN045 BKN150
     FM282200 21007KT P6SM SCT050 BKN100
     FM290400 25005KT P6SM OVC100
     FM291200 VRB02KT P6SM OVC100=



000
FTUS46 KPQR 281723
TAFAST
TAF
KAST 281723Z 2818/2918 22009KT P6SM VCSH SCT018 BKN060
     FM282000 22009KT P6SM OVC050
     FM290000 20004KT P6SM SCT045 OVC100
     FM291100 17004KT P6SM OVC060=



000
FTUS46 KPQR 281723
TAFSLE
TAF
KSLE 281723Z 2818/2918 18010KT P6SM SCT040 BKN060
     FM282000 20004KT P6SM BKN050
     FM282300 25005KT P6SM SCT050 BKN250
     FM290800 VRB02KT P6SM BKN200=



000
FTUS46 KPQR 281723
TAFPDX
TAF
KPDX 281723Z 2818/2918 20010KT P6SM BKN060 BKN150
     FM290000 20010KT P6SM SCT050 BKN150
     FM290600 VRB03KT P6SM BKN150=



000
FTUS46 KPQR 281723
TAFHIO
TAF
KHIO 281723Z 2818/2918 19011KT P6SM SCT020 BKN045 BKN150
     FM282200 21007KT P6SM SCT050 BKN100
     FM290400 25005KT P6SM OVC100
     FM291200 VRB02KT P6SM OVC100=



000
FTUS46 KPQR 281723
TAFONP
TAF
KONP 281723Z 2818/2918 24007KT P6SM VCSH SCT015 BKN035
     FM282000 22011G16KT P6SM VCSH BKN050
     FM290100 24007KT P6SM SCT050 BKN100
     FM290700 18005KT P6SM OVC060=



000
FTUS46 KPQR 281723
TAFEUG
TAF
KEUG 281723Z 2818/2918 20008KT P6SM BKN050 BKN200
     FM282200 28005KT P6SM SCT050 SCT250
     FM290400 22003KT P6SM BKN250=



000
FTUS46 KPQR 281723
TAFAST
TAF
KAST 281723Z 2818/2918 22009KT P6SM VCSH SCT018 BKN060
     FM282000 22009KT P6SM OVC050
     FM290000 20004KT P6SM SCT045 OVC100
     FM291100 17004KT P6SM OVC060=



000
FTUS46 KPQR 281723
TAFEUG
TAF
KEUG 281723Z 2818/2918 20008KT P6SM BKN050 BKN200
     FM282200 28005KT P6SM SCT050 SCT250
     FM290400 22003KT P6SM BKN250=



000
FTUS46 KPQR 281723
TAFSLE
TAF
KSLE 281723Z 2818/2918 18010KT P6SM SCT040 BKN060
     FM282000 20004KT P6SM BKN050
     FM282300 25005KT P6SM SCT050 BKN250
     FM290800 VRB02KT P6SM BKN200=



000
FTUS46 KPQR 281723
TAFONP
TAF
KONP 281723Z 2818/2918 24007KT P6SM VCSH SCT015 BKN035
     FM282000 22011G16KT P6SM VCSH BKN050
     FM290100 24007KT P6SM SCT050 BKN100
     FM290700 18005KT P6SM OVC060=



000
FTUS46 KPQR 281626 AAB
TAFAST
TAF AMD
KAST 281626Z 2816/2912 22009KT P6SM SCT018 BKN045
      TEMPO 2816/2819 BKN018 OVC035
     FM281900 22009KT P6SM VCSH BKN050
     FM290000 20004KT P6SM SCT050 OVC100=



000
FTUS46 KPQR 281626 AAB
TAFAST
TAF AMD
KAST 281626Z 2816/2912 22009KT P6SM SCT018 BKN045
      TEMPO 2816/2819 BKN018 OVC035
     FM281900 22009KT P6SM VCSH BKN050
     FM290000 20004KT P6SM SCT050 OVC100=



000
FTUS46 KPQR 281626 AAB
TAFAST
TAF AMD
KAST 281626Z 2816/2912 22009KT P6SM SCT018 BKN045
      TEMPO 2816/2819 BKN018 OVC035
     FM281900 22009KT P6SM VCSH BKN050
     FM290000 20004KT P6SM SCT050 OVC100=



000
FTUS46 KPQR 281504 AAA
TAFPDX
TAF AMD
KPDX 281504Z 2815/2912 19008KT P6SM BKN060 BKN150
     FM290000 20010KT P6SM SCT050 BKN200
     FM290600 VRB03KT P6SM BKN100=



000
FTUS46 KPQR 281504 AAA
TAFPDX
TAF AMD
KPDX 281504Z 2815/2912 19008KT P6SM BKN060 BKN150
     FM290000 20010KT P6SM SCT050 BKN200
     FM290600 VRB03KT P6SM BKN100=



000
FTUS46 KPQR 281504 AAA
TAFPDX
TAF AMD
KPDX 281504Z 2815/2912 19008KT P6SM BKN060 BKN150
     FM290000 20010KT P6SM SCT050 BKN200
     FM290600 VRB03KT P6SM BKN100=



000
FTUS46 KPQR 281504 AAA
TAFPDX
TAF AMD
KPDX 281504Z 2815/2912 19008KT P6SM BKN060 BKN150
     FM290000 20010KT P6SM SCT050 BKN200
     FM290600 VRB03KT P6SM BKN100=



000
FTUS46 KPQR 281236 AAA
TAFAST
TAF AMD
KAST 281236Z 2813/2912 25010KT P6SM SCT018 BKN045
      TEMPO 2813/2815 BKN018 OVC035
     FM281700 22009KT P6SM VCSH BKN050
     FM290400 20004KT P6SM SCT050 OVC100=



000
FTUS46 KPQR 281236 AAA
TAFAST
TAF AMD
KAST 281236Z 2813/2912 25010KT P6SM SCT018 BKN045
      TEMPO 2813/2815 BKN018 OVC035
     FM281700 22009KT P6SM VCSH BKN050
     FM290400 20004KT P6SM SCT050 OVC100=



000
FTUS46 KPQR 281236 AAA
TAFAST
TAF AMD
KAST 281236Z 2813/2912 25010KT P6SM SCT018 BKN045
      TEMPO 2813/2815 BKN018 OVC035
     FM281700 22009KT P6SM VCSH BKN050
     FM290400 20004KT P6SM SCT050 OVC100=



000
FTUS46 KPQR 281236 AAA
TAFAST
TAF AMD
KAST 281236Z 2813/2912 25010KT P6SM SCT018 BKN045
      TEMPO 2813/2815 BKN018 OVC035
     FM281700 22009KT P6SM VCSH BKN050
     FM290400 20004KT P6SM SCT050 OVC100=



000
FTUS46 KPQR 281124
TAFPDX
TAF
KPDX 281124Z 2812/2912 22008KT P6SM VCSH BKN045
     FM281700 22006KT P6SM BKN050
     FM290000 22005KT P6SM SCT050 BKN100=



000
FTUS46 KPQR 281124
TAFPDX
TAF
KPDX 281124Z 2812/2912 22008KT P6SM VCSH BKN045
     FM281700 22006KT P6SM BKN050
     FM290000 22005KT P6SM SCT050 BKN100=



000
FTUS46 KPQR 281124
TAFEUG
TAF
KEUG 281124Z 2812/2912 19007KT P6SM SCT025 BKN040
     FM281700 20004KT P6SM BKN050
     FM282200 28005KT P6SM SCT050 BKN250
     FM290000 33005KT P6SM BKN250=



000
FTUS46 KPQR 281124
TAFEUG
TAF
KEUG 281124Z 2812/2912 19007KT P6SM SCT025 BKN040
     FM281700 20004KT P6SM BKN050
     FM282200 28005KT P6SM SCT050 BKN250
     FM290000 33005KT P6SM BKN250=



000
FTUS46 KPQR 281124
TAFTTD
TAF
KTTD 281124Z 2812/2912 22010KT P6SM VCSH SCT025 BKN045
     FM281700 21007KT P6SM BKN050
     FM290200 VRB02KT P6SM SCT050 BKN100=



000
FTUS46 KPQR 281124
TAFHIO
TAF
KHIO 281124Z 2812/2912 19006KT P6SM VCSH SCT025 BKN045
     FM281700 20004KT P6SM BKN050
     FM290000 25005KT P6SM SCT050 BKN100=



000
FTUS46 KPQR 281124
TAFSLE
TAF
KSLE 281124Z 2812/2912 20009KT P6SM SCT040 BKN060
     FM281700 20004KT P6SM BKN050
     FM282300 25005KT P6SM SCT050 BKN250=



000
FTUS46 KPQR 281124
TAFAST
TAF
KAST 281124Z 2812/2912 25010KT P6SM SCT015 BKN035 OVC050
      TEMPO 2812/2815 BKN015 OVC035
     FM281700 22009KT P6SM VCSH BKN050
     FM290400 20004KT P6SM SCT050 OVC100=



000
FTUS46 KPQR 281124
TAFONP
TAF
KONP 281124Z 2812/2912 24007KT P6SM SCT015 SCT030 BKN045
      TEMPO 2812/2815 BKN028 BKN045
     FM281600 20009KT P6SM VCSH BKN050
     FM282000 24007KT P6SM SCT050 BKN100=



000
FTUS46 KPQR 281124
TAFHIO
TAF
KHIO 281124Z 2812/2912 19006KT P6SM VCSH SCT025 BKN045
     FM281700 20004KT P6SM BKN050
     FM290000 25005KT P6SM SCT050 BKN100=



000
FTUS46 KPQR 281124
TAFAST
TAF
KAST 281124Z 2812/2912 25010KT P6SM SCT015 BKN035 OVC050
      TEMPO 2812/2815 BKN015 OVC035
     FM281700 22009KT P6SM VCSH BKN050
     FM290400 20004KT P6SM SCT050 OVC100=



000
FTUS46 KPQR 281124
TAFSLE
TAF
KSLE 281124Z 2812/2912 20009KT P6SM SCT040 BKN060
     FM281700 20004KT P6SM BKN050
     FM282300 25005KT P6SM SCT050 BKN250=



000
FTUS46 KPQR 281124
TAFTTD
TAF
KTTD 281124Z 2812/2912 22010KT P6SM VCSH SCT025 BKN045
     FM281700 21007KT P6SM BKN050
     FM290200 VRB02KT P6SM SCT050 BKN100=



000
FTUS46 KPQR 281124
TAFONP
TAF
KONP 281124Z 2812/2912 24007KT P6SM SCT015 SCT030 BKN045
      TEMPO 2812/2815 BKN028 BKN045
     FM281600 20009KT P6SM VCSH BKN050
     FM282000 24007KT P6SM SCT050 BKN100=



000
FTUS46 KPQR 280840 AAB
TAFAST
TAF AMD
KAST 280840Z 2809/2906 24010KT P6SM -SHRA SCT015 BKN035 OVC050
      TEMPO 2809/2812 BKN015 OVC035
     FM281700 22009KT P6SM VCSH BKN050=



000
FTUS46 KPQR 280840 AAB
TAFAST
TAF AMD
KAST 280840Z 2809/2906 24010KT P6SM -SHRA SCT015 BKN035 OVC050
      TEMPO 2809/2812 BKN015 OVC035
     FM281700 22009KT P6SM VCSH BKN050=



000
FTUS46 KPQR 280840 AAB
TAFAST
TAF AMD
KAST 280840Z 2809/2906 24010KT P6SM -SHRA SCT015 BKN035 OVC050
      TEMPO 2809/2812 BKN015 OVC035
     FM281700 22009KT P6SM VCSH BKN050=



000
FTUS46 KPQR 280835 AAA
TAFPDX
TAF AMD
KPDX 280835Z 2809/2906 24012KT P6SM VCSH SCT045 OVC060
     FM281000 22008KT P6SM -SHRA BKN045
     FM281700 20006KT P6SM BKN050=



000
FTUS46 KPQR 280835 AAA
TAFPDX
TAF AMD
KPDX 280835Z 2809/2906 24012KT P6SM VCSH SCT045 OVC060
     FM281000 22008KT P6SM -SHRA BKN045
     FM281700 20006KT P6SM BKN050=



000
FTUS46 KPQR 280835 AAA
TAFPDX
TAF AMD
KPDX 280835Z 2809/2906 24012KT P6SM VCSH SCT045 OVC060
     FM281000 22008KT P6SM -SHRA BKN045
     FM281700 20006KT P6SM BKN050=



000
FTUS46 KPQR 280834 AAA
TAFAST
TAF AMD
KAST 280834Z 2809/2906 24010KT P6SM -SHRA SCT015 BKN030 OVC050
      TEMPO 2809/2812 BKN015 OVC035
     FM281700 22009KT P6SM VCSH BKN050=



000
FTUS46 KPQR 280834 AAA
TAFAST
TAF AMD
KAST 280834Z 2809/2906 24010KT P6SM -SHRA SCT015 BKN030 OVC050
      TEMPO 2809/2812 BKN015 OVC035
     FM281700 22009KT P6SM VCSH BKN050=



000
FTUS46 KPQR 280834 AAA
TAFAST
TAF AMD
KAST 280834Z 2809/2906 24010KT P6SM -SHRA SCT015 BKN030 OVC050
      TEMPO 2809/2812 BKN015 OVC035
     FM281700 22009KT P6SM VCSH BKN050=



000
FTUS46 KPQR 280834 AAA
TAFAST
TAF AMD
KAST 280834Z 2809/2906 24010KT P6SM -SHRA SCT015 BKN030 OVC050
      TEMPO 2809/2812 BKN015 OVC035
     FM281700 22009KT P6SM VCSH BKN050=



000
FTUS46 KPQR 280831 AAA
TAFSLE
TAF AMD
KSLE 280831Z 2809/2906 20010KT P6SM -RA SCT040 OVC060
     FM281700 20004KT P6SM BKN050
     FM290000 28006KT P6SM SCT050=



000
FTUS46 KPQR 280831 AAA
TAFSLE
TAF AMD
KSLE 280831Z 2809/2906 20010KT P6SM -RA SCT040 OVC060
     FM281700 20004KT P6SM BKN050
     FM290000 28006KT P6SM SCT050=



000
FTUS46 KPQR 280831 AAA
TAFSLE
TAF AMD
KSLE 280831Z 2809/2906 20010KT P6SM -RA SCT040 OVC060
     FM281700 20004KT P6SM BKN050
     FM290000 28006KT P6SM SCT050=



000
FTUS46 KPQR 280831 AAA
TAFSLE
TAF AMD
KSLE 280831Z 2809/2906 20010KT P6SM -RA SCT040 OVC060
     FM281700 20004KT P6SM BKN050
     FM290000 28006KT P6SM SCT050=



000
FTUS46 KPQR 280829 AAA
TAFONP
TAF AMD
KONP 280829Z 2808/2906 25007KT P6SM -SHRA SCT015 SCT030 BKN045
     FM281200 23007KT P6SM -SHRA BKN028 BKN045
     FM281700 20009KT P6SM VCSH BKN050=



000
FTUS46 KPQR 280829 AAA
TAFONP
TAF AMD
KONP 280829Z 2808/2906 25007KT P6SM -SHRA SCT015 SCT030 BKN045
     FM281200 23007KT P6SM -SHRA BKN028 BKN045
     FM281700 20009KT P6SM VCSH BKN050=



000
FTUS46 KPQR 280829 AAA
TAFONP
TAF AMD
KONP 280829Z 2808/2906 25007KT P6SM -SHRA SCT015 SCT030 BKN045
     FM281200 23007KT P6SM -SHRA BKN028 BKN045
     FM281700 20009KT P6SM VCSH BKN050=



000
FTUS46 KPQR 280529
TAFAST
TAF
KAST 280529Z 2806/2906 24010KT P6SM -SHRA SCT015 BKN035 OVC050
      TEMPO 2806/2808 BKN015 OVC035
     FM281700 22009KT P6SM VCSH BKN050=



000
FTUS46 KPQR 280529
TAFEUG
TAF
KEUG 280529Z 2806/2906 25011KT P6SM -SHRA SCT030 OVC060
      TEMPO 2806/2808 BKN030
     FM280800 19007KT P6SM -SHRA SCT025 BKN040
     FM281700 20004KT P6SM BKN050
     FM290000 34007KT P6SM SCT050=



000
FTUS46 KPQR 280529
TAFPDX
TAF
KPDX 280529Z 2806/2906 25012G22KT P6SM -SHRA SCT045 OVC060
     FM280700 25011KT P6SM -SHRA SCT025 BKN040
     FM281000 22008KT P6SM -SHRA BKN045
     FM281700 20006KT P6SM BKN050=



000
FTUS46 KPQR 280529
TAFAST
TAF
KAST 280529Z 2806/2906 24010KT P6SM -SHRA SCT015 BKN035 OVC050
      TEMPO 2806/2808 BKN015 OVC035
     FM281700 22009KT P6SM VCSH BKN050=



000
FTUS46 KPQR 280529
TAFONP
TAF
KONP 280529Z 2806/2906 25007KT P6SM -SHRA SCT009 BKN015 OVC045
     FM281200 23007KT P6SM -SHRA BKN028 BKN045
     FM281700 20009KT P6SM VCSH BKN050=



000
FTUS46 KPQR 280529
TAFTTD
TAF
KTTD 280529Z 2806/2906 25012G20KT P6SM -SHRA SCT030 OVC050
     FM280800 24008KT P6SM -SHRA SCT025 BKN040
     FM281700 20004KT P6SM BKN050=



000
FTUS46 KPQR 280529
TAFSLE
TAF
KSLE 280529Z 2806/2906 25012G18KT P6SM -RA SCT035 OVC060
     FM280800 23010KT P6SM -SHRA SCT025 BKN045
     FM281700 20004KT P6SM BKN050
     FM290000 28006KT P6SM SCT050=



000
FTUS46 KPQR 280529
TAFHIO
TAF
KHIO 280529Z 2806/2906 25010G20KT P6SM -SHRA SCT030 OVC060
     FM280700 23007KT P6SM -SHRA SCT025 BKN040
     FM281700 20004KT P6SM BKN050=



000
FTUS46 KPQR 280529
TAFEUG
TAF
KEUG 280529Z 2806/2906 25011KT P6SM -SHRA SCT030 OVC060
      TEMPO 2806/2808 BKN030
     FM280800 19007KT P6SM -SHRA SCT025 BKN040
     FM281700 20004KT P6SM BKN050
     FM290000 34007KT P6SM SCT050=



000
FTUS46 KPQR 280529
TAFHIO
TAF
KHIO 280529Z 2806/2906 25010G20KT P6SM -SHRA SCT030 OVC060
     FM280700 23007KT P6SM -SHRA SCT025 BKN040
     FM281700 20004KT P6SM BKN050=



000
FTUS46 KPQR 280529
TAFPDX
TAF
KPDX 280529Z 2806/2906 25012G22KT P6SM -SHRA SCT045 OVC060
     FM280700 25011KT P6SM -SHRA SCT025 BKN040
     FM281000 22008KT P6SM -SHRA BKN045
     FM281700 20006KT P6SM BKN050=



000
FTUS46 KPQR 280529
TAFAST
TAF
KAST 280529Z 2806/2906 24010KT P6SM -SHRA SCT015 BKN035 OVC050
      TEMPO 2806/2808 BKN015 OVC035
     FM281700 22009KT P6SM VCSH BKN050=



000
FTUS46 KPQR 280529
TAFTTD
TAF
KTTD 280529Z 2806/2906 25012G20KT P6SM -SHRA SCT030 OVC050
     FM280800 24008KT P6SM -SHRA SCT025 BKN040
     FM281700 20004KT P6SM BKN050=



000
FTUS46 KPQR 280529
TAFAST
TAF
KAST 280529Z 2806/2906 24010KT P6SM -SHRA SCT015 BKN035 OVC050
      TEMPO 2806/2808 BKN015 OVC035
     FM281700 22009KT P6SM VCSH BKN050=



000
FTUS46 KPQR 280529
TAFHIO
TAF
KHIO 280529Z 2806/2906 25010G20KT P6SM -SHRA SCT030 OVC060
     FM280700 23007KT P6SM -SHRA SCT025 BKN040
     FM281700 20004KT P6SM BKN050=



000
FTUS46 KPQR 280529
TAFONP
TAF
KONP 280529Z 2806/2906 25007KT P6SM -SHRA SCT009 BKN015 OVC045
     FM281200 23007KT P6SM -SHRA BKN028 BKN045
     FM281700 20009KT P6SM VCSH BKN050=



000
FTUS46 KPQR 280529
TAFONP
TAF
KONP 280529Z 2806/2906 25007KT P6SM -SHRA SCT009 BKN015 OVC045
     FM281200 23007KT P6SM -SHRA BKN028 BKN045
     FM281700 20009KT P6SM VCSH BKN050=



000
FTUS46 KPQR 280529
TAFSLE
TAF
KSLE 280529Z 2806/2906 25012G18KT P6SM -RA SCT035 OVC060
     FM280800 23010KT P6SM -SHRA SCT025 BKN045
     FM281700 20004KT P6SM BKN050
     FM290000 28006KT P6SM SCT050=



000
FTUS46 KPQR 280529
TAFPDX
TAF
KPDX 280529Z 2806/2906 25012G22KT P6SM -SHRA SCT045 OVC060
     FM280700 25011KT P6SM -SHRA SCT025 BKN040
     FM281000 22008KT P6SM -SHRA BKN045
     FM281700 20006KT P6SM BKN050=



000
FTUS46 KPQR 280529
TAFEUG
TAF
KEUG 280529Z 2806/2906 25011KT P6SM -SHRA SCT030 OVC060
      TEMPO 2806/2808 BKN030
     FM280800 19007KT P6SM -SHRA SCT025 BKN040
     FM281700 20004KT P6SM BKN050
     FM290000 34007KT P6SM SCT050=



000
FTUS46 KPQR 280529
TAFSLE
TAF
KSLE 280529Z 2806/2906 25012G18KT P6SM -RA SCT035 OVC060
     FM280800 23010KT P6SM -SHRA SCT025 BKN045
     FM281700 20004KT P6SM BKN050
     FM290000 28006KT P6SM SCT050=



000
FTUS46 KPQR 280529
TAFTTD
TAF
KTTD 280529Z 2806/2906 25012G20KT P6SM -SHRA SCT030 OVC050
     FM280800 24008KT P6SM -SHRA SCT025 BKN040
     FM281700 20004KT P6SM BKN050=



000
FTUS46 KPQR 280420 AAB
TAFPDX
TAF AMD
KPDX 280420Z 2804/2824 25015G25KT P6SM -SHRA SCT030 OVC050
     FM280700 25011KT P6SM -SHRA SCT025 BKN040
     FM281000 22008KT P6SM -SHRA BKN045
     FM281700 20006KT P6SM BKN050=



000
FTUS46 KPQR 280411 AAB
TAFAST
TAF AMD
KAST 280411Z 2804/2824 24010KT P6SM -SHRA SCT015 BKN035 OVC050
      TEMPO 2804/2808 BKN015 OVC035
     FM281700 22009KT P6SM VCSH BKN040=



000
FTUS46 KPQR 280411 AAB
TAFAST
TAF AMD
KAST 280411Z 2804/2824 24010KT P6SM -SHRA SCT015 BKN035 OVC050
      TEMPO 2804/2808 BKN015 OVC035
     FM281700 22009KT P6SM VCSH BKN040=



000
FTUS46 KPQR 280411 AAB
TAFAST
TAF AMD
KAST 280411Z 2804/2824 24010KT P6SM -SHRA SCT015 BKN035 OVC050
      TEMPO 2804/2808 BKN015 OVC035
     FM281700 22009KT P6SM VCSH BKN040=



000
FTUS46 KPQR 280411 AAB
TAFAST
TAF AMD
KAST 280411Z 2804/2824 24010KT P6SM -SHRA SCT015 BKN035 OVC050
      TEMPO 2804/2808 BKN015 OVC035
     FM281700 22009KT P6SM VCSH BKN040=



000
FTUS46 KPQR 280308 AAA
TAFPDX
TAF AMD
KPDX 280308Z 2803/2824 23012G22KT P6SM -SHRA SCT030 OVC040
      TEMPO 2805/2807 BKN030
     FM280700 25011KT P6SM -SHRA SCT025 BKN040
     FM281000 22008KT P6SM -SHRA BKN045
     FM281700 20006KT P6SM BKN050=



000
FTUS46 KPQR 280308 AAA
TAFPDX
TAF AMD
KPDX 280308Z 2803/2824 23012G22KT P6SM -SHRA SCT030 OVC040
      TEMPO 2805/2807 BKN030
     FM280700 25011KT P6SM -SHRA SCT025 BKN040
     FM281000 22008KT P6SM -SHRA BKN045
     FM281700 20006KT P6SM BKN050=



000
FTUS46 KPQR 280308 AAA
TAFPDX
TAF AMD
KPDX 280308Z 2803/2824 23012G22KT P6SM -SHRA SCT030 OVC040
      TEMPO 2805/2807 BKN030
     FM280700 25011KT P6SM -SHRA SCT025 BKN040
     FM281000 22008KT P6SM -SHRA BKN045
     FM281700 20006KT P6SM BKN050=



000
FTUS46 KPQR 280308 AAA
TAFPDX
TAF AMD
KPDX 280308Z 2803/2824 23012G22KT P6SM -SHRA SCT030 OVC040
      TEMPO 2805/2807 BKN030
     FM280700 25011KT P6SM -SHRA SCT025 BKN040
     FM281000 22008KT P6SM -SHRA BKN045
     FM281700 20006KT P6SM BKN050=



000
FTUS46 KPQR 280107 AAA
TAFONP
TAF AMD
KONP 280107Z 2801/2824 20015G25KT 1SM -RA BR OVC005
     FM280400 24012KT 5SM -SHRA BR SCT015 BKN025
     FM281700 20009KT P6SM VCSH BKN040=



000
FTUS46 KPQR 280107 AAA
TAFONP
TAF AMD
KONP 280107Z 2801/2824 20015G25KT 1SM -RA BR OVC005
     FM280400 24012KT 5SM -SHRA BR SCT015 BKN025
     FM281700 20009KT P6SM VCSH BKN040=



000
FTUS46 KPQR 280105 AAA
TAFAST
TAF AMD
KAST 280105Z 2801/2824 21013G21KT 3SM -RA BKN008 OVC015
     FM280400 24011G21KT P6SM -SHRA SCT020 BKN030
     FM281700 22009KT P6SM VCSH BKN040=



000
FTUS46 KPQR 280105 AAA
TAFAST
TAF AMD
KAST 280105Z 2801/2824 21013G21KT 3SM -RA BKN008 OVC015
     FM280400 24011G21KT P6SM -SHRA SCT020 BKN030
     FM281700 22009KT P6SM VCSH BKN040=



000
FTUS46 KPQR 272340
TAFSLE
TAF
KSLE 272340Z 2800/2824 23012G22KT P6SM BKN045
     FM280300 23011KT P6SM -RA OVC045
     FM280500 22012G18KT P6SM -RA BKN025 OVC040
     FM280800 19007KT P6SM -SHRA SCT025 BKN040
     FM281700 20004KT P6SM BKN050=



000
FTUS46 KPQR 272340
TAFONP
TAF
KONP 272340Z 2800/2824 20015G23KT P6SM OVC007
     FM280200 20015G25KT 4SM -RA OVC005
     FM280500 24012KT 5SM -SHRA BR SCT015 BKN025
     FM281700 20009KT P6SM VCSH BKN040=



000
FTUS46 KPQR 272340
TAFEUG
TAF
KEUG 272340Z 2800/2824 25011KT P6SM FEW025 BKN045
     FM280300 23012KT P6SM -RA OVC045
     FM280500 22012KT P6SM -RA BKN025 OVC040
     FM280800 19007KT P6SM -SHRA SCT025 BKN040
     FM281700 20004KT P6SM BKN050=



000
FTUS46 KPQR 272340
TAFHIO
TAF
KHIO 272340Z 2800/2824 18012G22KT P6SM BKN040
     FM280300 18011KT P6SM -RA FEW030 OVC040
     FM280400 22010KT P6SM -RA BKN025 OVC040
     FM280800 23007KT P6SM -SHRA SCT025 BKN040
     FM281700 20004KT P6SM BKN050=



000
FTUS46 KPQR 272340
TAFTTD
TAF
KTTD 272340Z 2800/2824 21012G22KT P6SM BKN045
     FM280300 20012KT P6SM -RA OVC040
     FM280500 20012KT P6SM -RA BKN025 OVC040
     FM281000 24008KT P6SM -SHRA SCT025 BKN040
     FM281700 20004KT P6SM BKN050=



000
FTUS46 KPQR 272340
TAFPDX
TAF
KPDX 272340Z 2800/2824 19014G24KT P6SM BKN045
     FM280300 20012KT P6SM -RA OVC040
     FM280500 20012KT P6SM -RA BKN025 OVC040
     FM280800 23008KT P6SM -SHRA SCT025 BKN040
     FM281700 20006KT P6SM BKN050=



000
FTUS46 KPQR 272340
TAFONP
TAF
KONP 272340Z 2800/2824 20015G23KT P6SM OVC007
     FM280200 20015G25KT 4SM -RA OVC005
     FM280500 24012KT 5SM -SHRA BR SCT015 BKN025
     FM281700 20009KT P6SM VCSH BKN040=



000
FTUS46 KPQR 272340
TAFAST
TAF
KAST 272340Z 2800/2824 19012G22KT P6SM OVC010
     FM280100 22013G21KT P6SM -RA SCT010 OVC015
     FM280500 24011KT P6SM -SHRA SCT020 BKN030
     FM281700 22009KT P6SM VCSH BKN040=



000
FTUS46 KPQR 272340
TAFSLE
TAF
KSLE 272340Z 2800/2824 23012G22KT P6SM BKN045
     FM280300 23011KT P6SM -RA OVC045
     FM280500 22012G18KT P6SM -RA BKN025 OVC040
     FM280800 19007KT P6SM -SHRA SCT025 BKN040
     FM281700 20004KT P6SM BKN050=



000
FTUS46 KPQR 272340
TAFHIO
TAF
KHIO 272340Z 2800/2824 18012G22KT P6SM BKN040
     FM280300 18011KT P6SM -RA FEW030 OVC040
     FM280400 22010KT P6SM -RA BKN025 OVC040
     FM280800 23007KT P6SM -SHRA SCT025 BKN040
     FM281700 20004KT P6SM BKN050=



000
FTUS46 KPQR 272340
TAFTTD
TAF
KTTD 272340Z 2800/2824 21012G22KT P6SM BKN045
     FM280300 20012KT P6SM -RA OVC040
     FM280500 20012KT P6SM -RA BKN025 OVC040
     FM281000 24008KT P6SM -SHRA SCT025 BKN040
     FM281700 20004KT P6SM BKN050=



000
FTUS46 KPQR 272340
TAFEUG
TAF
KEUG 272340Z 2800/2824 25011KT P6SM FEW025 BKN045
     FM280300 23012KT P6SM -RA OVC045
     FM280500 22012KT P6SM -RA BKN025 OVC040
     FM280800 19007KT P6SM -SHRA SCT025 BKN040
     FM281700 20004KT P6SM BKN050=



000
FTUS46 KPQR 272340
TAFPDX
TAF
KPDX 272340Z 2800/2824 19014G24KT P6SM BKN045
     FM280300 20012KT P6SM -RA OVC040
     FM280500 20012KT P6SM -RA BKN025 OVC040
     FM280800 23008KT P6SM -SHRA SCT025 BKN040
     FM281700 20006KT P6SM BKN050=



000
FTUS46 KPQR 272340
TAFAST
TAF
KAST 272340Z 2800/2824 19012G22KT P6SM OVC010
     FM280100 22013G21KT P6SM -RA SCT010 OVC015
     FM280500 24011KT P6SM -SHRA SCT020 BKN030
     FM281700 22009KT P6SM VCSH BKN040=



000
FTUS46 KPQR 272340
TAFTTD
TAF
KTTD 272340Z 2800/2824 21012G22KT P6SM BKN045
     FM280300 20012KT P6SM -RA OVC040
     FM280500 20012KT P6SM -RA BKN025 OVC040
     FM281000 24008KT P6SM -SHRA SCT025 BKN040
     FM281700 20004KT P6SM BKN050=



000
FTUS46 KPQR 272340
TAFPDX
TAF
KPDX 272340Z 2800/2824 19014G24KT P6SM BKN045
     FM280300 20012KT P6SM -RA OVC040
     FM280500 20012KT P6SM -RA BKN025 OVC040
     FM280800 23008KT P6SM -SHRA SCT025 BKN040
     FM281700 20006KT P6SM BKN050=



000
FTUS46 KPQR 272340
TAFSLE
TAF
KSLE 272340Z 2800/2824 23012G22KT P6SM BKN045
     FM280300 23011KT P6SM -RA OVC045
     FM280500 22012G18KT P6SM -RA BKN025 OVC040
     FM280800 19007KT P6SM -SHRA SCT025 BKN040
     FM281700 20004KT P6SM BKN050=



000
FTUS46 KPQR 272340
TAFAST
TAF
KAST 272340Z 2800/2824 19012G22KT P6SM OVC010
     FM280100 22013G21KT P6SM -RA SCT010 OVC015
     FM280500 24011KT P6SM -SHRA SCT020 BKN030
     FM281700 22009KT P6SM VCSH BKN040=



000
FTUS46 KPQR 272340
TAFEUG
TAF
KEUG 272340Z 2800/2824 25011KT P6SM FEW025 BKN045
     FM280300 23012KT P6SM -RA OVC045
     FM280500 22012KT P6SM -RA BKN025 OVC040
     FM280800 19007KT P6SM -SHRA SCT025 BKN040
     FM281700 20004KT P6SM BKN050=



000
FTUS46 KPQR 272340
TAFONP
TAF
KONP 272340Z 2800/2824 20015G23KT P6SM OVC007
     FM280200 20015G25KT 4SM -RA OVC005
     FM280500 24012KT 5SM -SHRA BR SCT015 BKN025
     FM281700 20009KT P6SM VCSH BKN040=



000
FTUS46 KPQR 272340
TAFAST
TAF
KAST 272340Z 2800/2824 19012G22KT P6SM OVC010
     FM280100 22013G21KT P6SM -RA SCT010 OVC015
     FM280500 24011KT P6SM -SHRA SCT020 BKN030
     FM281700 22009KT P6SM VCSH BKN040=



000
FTUS46 KPQR 272340
TAFHIO
TAF
KHIO 272340Z 2800/2824 18012G22KT P6SM BKN040
     FM280300 18011KT P6SM -RA FEW030 OVC040
     FM280400 22010KT P6SM -RA BKN025 OVC040
     FM280800 23007KT P6SM -SHRA SCT025 BKN040
     FM281700 20004KT P6SM BKN050=



000
FTUS46 KPQR 272340
TAFPDX
TAF
KPDX 272340Z 2800/2824 19014G24KT P6SM BKN045
     FM280300 20012KT P6SM -RA OVC040
     FM280500 20012KT P6SM -RA BKN025 OVC040
     FM280800 23008KT P6SM -SHRA SCT025 BKN040
     FM281700 20006KT P6SM BKN050=



000
FTUS46 KPQR 272340
TAFONP
TAF
KONP 272340Z 2800/2824 20015G23KT P6SM OVC007
     FM280200 20015G25KT 4SM -RA OVC005
     FM280500 24012KT 5SM -SHRA BR SCT015 BKN025
     FM281700 20009KT P6SM VCSH BKN040=



000
FTUS46 KPQR 272340
TAFHIO
TAF
KHIO 272340Z 2800/2824 18012G22KT P6SM BKN040
     FM280300 18011KT P6SM -RA FEW030 OVC040
     FM280400 22010KT P6SM -RA BKN025 OVC040
     FM280800 23007KT P6SM -SHRA SCT025 BKN040
     FM281700 20004KT P6SM BKN050=



000
FTUS46 KPQR 272340
TAFEUG
TAF
KEUG 272340Z 2800/2824 25011KT P6SM FEW025 BKN045
     FM280300 23012KT P6SM -RA OVC045
     FM280500 22012KT P6SM -RA BKN025 OVC040
     FM280800 19007KT P6SM -SHRA SCT025 BKN040
     FM281700 20004KT P6SM BKN050=



000
FTUS46 KPQR 272340
TAFSLE
TAF
KSLE 272340Z 2800/2824 23012G22KT P6SM BKN045
     FM280300 23011KT P6SM -RA OVC045
     FM280500 22012G18KT P6SM -RA BKN025 OVC040
     FM280800 19007KT P6SM -SHRA SCT025 BKN040
     FM281700 20004KT P6SM BKN050=



000
FTUS46 KPQR 272340
TAFTTD
TAF
KTTD 272340Z 2800/2824 21012G22KT P6SM BKN045
     FM280300 20012KT P6SM -RA OVC040
     FM280500 20012KT P6SM -RA BKN025 OVC040
     FM281000 24008KT P6SM -SHRA SCT025 BKN040
     FM281700 20004KT P6SM BKN050=



000
FTUS46 KPQR 272134 AAA
TAFONP
TAF AMD
KONP 272134Z 2722/2818 21012KT P6SM SCT015 OVC025
     FM280000 22015G23KT 5SM -RA SCT015 OVC025
     FM280400 24012KT 5SM -SHRA BR SCT015 BKN025=



000
FTUS46 KPQR 272134 AAA
TAFONP
TAF AMD
KONP 272134Z 2722/2818 21012KT P6SM SCT015 OVC025
     FM280000 22015G23KT 5SM -RA SCT015 OVC025
     FM280400 24012KT 5SM -SHRA BR SCT015 BKN025=



000
FTUS46 KPQR 272133 AAA
TAFPDX
TAF AMD
KPDX 272133Z 2722/2818 20010KT P6SM SCT250
     FM280300 22012KT P6SM -RA BKN025 OVC040
     FM280800 23008KT P6SM -SHRA SCT025 BKN040=



000
FTUS46 KPQR 272133 AAA
TAFPDX
TAF AMD
KPDX 272133Z 2722/2818 20010KT P6SM SCT250
     FM280300 22012KT P6SM -RA BKN025 OVC040
     FM280800 23008KT P6SM -SHRA SCT025 BKN040=



000
FTUS46 KPQR 272133 AAA
TAFPDX
TAF AMD
KPDX 272133Z 2722/2818 20010KT P6SM SCT250
     FM280300 22012KT P6SM -RA BKN025 OVC040
     FM280800 23008KT P6SM -SHRA SCT025 BKN040=



000
FTUS46 KPQR 272133 AAA
TAFPDX
TAF AMD
KPDX 272133Z 2722/2818 20010KT P6SM SCT250
     FM280300 22012KT P6SM -RA BKN025 OVC040
     FM280800 23008KT P6SM -SHRA SCT025 BKN040=



000
FTUS46 KPQR 272132 AAB
TAFEUG
TAF AMD
KEUG 272132Z 2722/2818 22010KT P6SM SCT025 BKN200
     FM280200 22012G18KT P6SM -RA BKN025 OVC040
     FM280600 18006KT P6SM -SHRA SCT025 BKN040=



000
FTUS46 KPQR 272132 AAB
TAFEUG
TAF AMD
KEUG 272132Z 2722/2818 22010KT P6SM SCT025 BKN200
     FM280200 22012G18KT P6SM -RA BKN025 OVC040
     FM280600 18006KT P6SM -SHRA SCT025 BKN040=



000
FTUS46 KPQR 272132 AAB
TAFEUG
TAF AMD
KEUG 272132Z 2722/2818 22010KT P6SM SCT025 BKN200
     FM280200 22012G18KT P6SM -RA BKN025 OVC040
     FM280600 18006KT P6SM -SHRA SCT025 BKN040=



000
FTUS46 KPQR 272132 AAB
TAFEUG
TAF AMD
KEUG 272132Z 2722/2818 22010KT P6SM SCT025 BKN200
     FM280200 22012G18KT P6SM -RA BKN025 OVC040
     FM280600 18006KT P6SM -SHRA SCT025 BKN040=



000
FTUS46 KPQR 272109 AAA
TAFSLE
TAF AMD
KSLE 272109Z 2721/2818 19010KT P6SM FEW050 SCT250
     FM280200 22012G18KT P6SM -RA BKN025 OVC040
     FM280700 19007KT P6SM -SHRA SCT025 BKN040=



000
FTUS46 KPQR 272109 AAA
TAFSLE
TAF AMD
KSLE 272109Z 2721/2818 19010KT P6SM FEW050 SCT250
     FM280200 22012G18KT P6SM -RA BKN025 OVC040
     FM280700 19007KT P6SM -SHRA SCT025 BKN040=



000
FTUS46 KPQR 271808 AAA
TAFEUG
TAF AMD
KEUG 271808Z 2718/2818 21010KT P6SM OVC012
     FM272200 22010KT P6SM SCT012
     FM280200 22012G18KT P6SM -RA BKN025 OVC040
     FM280600 18006KT P6SM -SHRA SCT025 BKN040=



000
FTUS46 KPQR 271808 AAA
TAFEUG
TAF AMD
KEUG 271808Z 2718/2818 21010KT P6SM OVC012
     FM272200 22010KT P6SM SCT012
     FM280200 22012G18KT P6SM -RA BKN025 OVC040
     FM280600 18006KT P6SM -SHRA SCT025 BKN040=



000
FTUS46 KPQR 271730
TAFTTD
TAF
KTTD 271730Z 2718/2818 23005KT P6SM SCT150
     FM280300 22009KT P6SM BKN025 OVC040
     FM280800 24006KT P6SM -SHRA SCT025 BKN040=



000
FTUS46 KPQR 271730
TAFSLE
TAF
KSLE 271730Z 2718/2818 VRB04KT P6SM SCT150
     FM272100 20010KT P6SM SCT150
     FM280200 22012G18KT P6SM -RA BKN025 OVC040
     FM280700 19007KT P6SM -SHRA SCT025 BKN040=



000
FTUS46 KPQR 271730
TAFTTD
TAF
KTTD 271730Z 2718/2818 23005KT P6SM SCT150
     FM280300 22009KT P6SM BKN025 OVC040
     FM280800 24006KT P6SM -SHRA SCT025 BKN040=



000
FTUS46 KPQR 271730
TAFSLE
TAF
KSLE 271730Z 2718/2818 VRB04KT P6SM SCT150
     FM272100 20010KT P6SM SCT150
     FM280200 22012G18KT P6SM -RA BKN025 OVC040
     FM280700 19007KT P6SM -SHRA SCT025 BKN040=



000
FTUS46 KPQR 271730
TAFPDX
TAF
KPDX 271730Z 2718/2818 23003KT P6SM SCT150
     FM280300 22012KT P6SM -RA BKN025 OVC040
     FM280800 23008KT P6SM -SHRA SCT025 BKN040=



000
FTUS46 KPQR 271730
TAFAST
TAF
KAST 271730Z 2718/2818 21007KT P6SM OVC010
     FM272100 21012KT P6SM OVC015
     FM280000 21013G21KT P6SM -RA SCT015 OVC025
     FM280500 24011KT P6SM -SHRA SCT020 BKN030=



000
FTUS46 KPQR 271730
TAFHIO
TAF
KHIO 271730Z 2718/2818 00000KT P6SM SCT150
     FM280200 22010KT P6SM -RA BKN025 OVC040
     FM280700 23007KT P6SM -SHRA SCT025 BKN040=



000
FTUS46 KPQR 271730
TAFEUG
TAF
KEUG 271730Z 2718/2818 21008KT P6SM OVC008
     FM272200 22010KT P6SM SCT008
     FM280200 22012G18KT P6SM -RA BKN025 OVC040
     FM280600 18006KT P6SM -SHRA SCT025 BKN040=



000
FTUS46 KPQR 271730
TAFONP
TAF
KONP 271730Z 2718/2818 21006KT 4SM BR OVC012
     FM272100 21012KT 5SM BR OVC015
     FM280000 22015G23KT 5SM -RA SCT015 OVC025
     FM280400 24012KT 5SM -SHRA BR SCT015 BKN025=



000
FTUS46 KPQR 271730
TAFSLE
TAF
KSLE 271730Z 2718/2818 VRB04KT P6SM SCT150
     FM272100 20010KT P6SM SCT150
     FM280200 22012G18KT P6SM -RA BKN025 OVC040
     FM280700 19007KT P6SM -SHRA SCT025 BKN040=



000
FTUS46 KPQR 271730
TAFAST
TAF
KAST 271730Z 2718/2818 21007KT P6SM OVC010
     FM272100 21012KT P6SM OVC015
     FM280000 21013G21KT P6SM -RA SCT015 OVC025
     FM280500 24011KT P6SM -SHRA SCT020 BKN030=



000
FTUS46 KPQR 271730
TAFPDX
TAF
KPDX 271730Z 2718/2818 23003KT P6SM SCT150
     FM280300 22012KT P6SM -RA BKN025 OVC040
     FM280800 23008KT P6SM -SHRA SCT025 BKN040=



000
FTUS46 KPQR 271730
TAFTTD
TAF
KTTD 271730Z 2718/2818 23005KT P6SM SCT150
     FM280300 22009KT P6SM BKN025 OVC040
     FM280800 24006KT P6SM -SHRA SCT025 BKN040=



000
FTUS46 KPQR 271730
TAFEUG
TAF
KEUG 271730Z 2718/2818 21008KT P6SM OVC008
     FM272200 22010KT P6SM SCT008
     FM280200 22012G18KT P6SM -RA BKN025 OVC040
     FM280600 18006KT P6SM -SHRA SCT025 BKN040=



000
FTUS46 KPQR 271730
TAFONP
TAF
KONP 271730Z 2718/2818 21006KT 4SM BR OVC012
     FM272100 21012KT 5SM BR OVC015
     FM280000 22015G23KT 5SM -RA SCT015 OVC025
     FM280400 24012KT 5SM -SHRA BR SCT015 BKN025=



000
FTUS46 KPQR 271730
TAFSLE
TAF
KSLE 271730Z 2718/2818 VRB04KT P6SM SCT150
     FM272100 20010KT P6SM SCT150
     FM280200 22012G18KT P6SM -RA BKN025 OVC040
     FM280700 19007KT P6SM -SHRA SCT025 BKN040=



000
FTUS46 KPQR 271730
TAFHIO
TAF
KHIO 271730Z 2718/2818 00000KT P6SM SCT150
     FM280200 22010KT P6SM -RA BKN025 OVC040
     FM280700 23007KT P6SM -SHRA SCT025 BKN040=



000
FTUS46 KPQR 271730
TAFHIO
TAF
KHIO 271730Z 2718/2818 00000KT P6SM SCT150
     FM280200 22010KT P6SM -RA BKN025 OVC040
     FM280700 23007KT P6SM -SHRA SCT025 BKN040=



000
FTUS46 KPQR 271730
TAFONP
TAF
KONP 271730Z 2718/2818 21006KT 4SM BR OVC012
     FM272100 21012KT 5SM BR OVC015
     FM280000 22015G23KT 5SM -RA SCT015 OVC025
     FM280400 24012KT 5SM -SHRA BR SCT015 BKN025=



000
FTUS46 KPQR 271730
TAFAST
TAF
KAST 271730Z 2718/2818 21007KT P6SM OVC010
     FM272100 21012KT P6SM OVC015
     FM280000 21013G21KT P6SM -RA SCT015 OVC025
     FM280500 24011KT P6SM -SHRA SCT020 BKN030=



000
FTUS46 KPQR 271730
TAFAST
TAF
KAST 271730Z 2718/2818 21007KT P6SM OVC010
     FM272100 21012KT P6SM OVC015
     FM280000 21013G21KT P6SM -RA SCT015 OVC025
     FM280500 24011KT P6SM -SHRA SCT020 BKN030=



000
FTUS46 KPQR 271730
TAFHIO
TAF
KHIO 271730Z 2718/2818 00000KT P6SM SCT150
     FM280200 22010KT P6SM -RA BKN025 OVC040
     FM280700 23007KT P6SM -SHRA SCT025 BKN040=



000
FTUS46 KPQR 271730
TAFPDX
TAF
KPDX 271730Z 2718/2818 23003KT P6SM SCT150
     FM280300 22012KT P6SM -RA BKN025 OVC040
     FM280800 23008KT P6SM -SHRA SCT025 BKN040=



000
FTUS46 KPQR 271730
TAFONP
TAF
KONP 271730Z 2718/2818 21006KT 4SM BR OVC012
     FM272100 21012KT 5SM BR OVC015
     FM280000 22015G23KT 5SM -RA SCT015 OVC025
     FM280400 24012KT 5SM -SHRA BR SCT015 BKN025=



000
FTUS46 KPQR 271730
TAFPDX
TAF
KPDX 271730Z 2718/2818 23003KT P6SM SCT150
     FM280300 22012KT P6SM -RA BKN025 OVC040
     FM280800 23008KT P6SM -SHRA SCT025 BKN040=



000
FTUS46 KPQR 271730
TAFTTD
TAF
KTTD 271730Z 2718/2818 23005KT P6SM SCT150
     FM280300 22009KT P6SM BKN025 OVC040
     FM280800 24006KT P6SM -SHRA SCT025 BKN040=



000
FTUS46 KPQR 271730
TAFEUG
TAF
KEUG 271730Z 2718/2818 21008KT P6SM OVC008
     FM272200 22010KT P6SM SCT008
     FM280200 22012G18KT P6SM -RA BKN025 OVC040
     FM280600 18006KT P6SM -SHRA SCT025 BKN040=



000
FTUS46 KPQR 271730
TAFEUG
TAF
KEUG 271730Z 2718/2818 21008KT P6SM OVC008
     FM272200 22010KT P6SM SCT008
     FM280200 22012G18KT P6SM -RA BKN025 OVC040
     FM280600 18006KT P6SM -SHRA SCT025 BKN040=



000
FTUS46 KPQR 271610 AAA
TAFSLE
TAF AMD
KSLE 271610Z 2716/2812 19006KT P6SM SKC
     FM280500 22010KT P6SM -RA BKN025=



000
FTUS46 KPQR 271610 AAA
TAFSLE
TAF AMD
KSLE 271610Z 2716/2812 19006KT P6SM SKC
     FM280500 22010KT P6SM -RA BKN025=



000
FTUS46 KPQR 271520 AAB
TAFEUG
TAF AMD
KEUG 271520Z 2715/2812 20006KT P6SM SCT002
     FM271600 20007KT P6SM BKN008
     FM272200 22010KT P6SM SCT008
     FM280500 22010KT P6SM -RA BKN025=



000
FTUS46 KPQR 271520 AAB
TAFEUG
TAF AMD
KEUG 271520Z 2715/2812 20006KT P6SM SCT002
     FM271600 20007KT P6SM BKN008
     FM272200 22010KT P6SM SCT008
     FM280500 22010KT P6SM -RA BKN025=



000
FTUS46 KPQR 271452 AAA
TAFEUG
TAF AMD
KEUG 271452Z 2715/2812 19003KT 6SM BR SCT002
     FM271700 20003KT P6SM FEW150
     FM271900 20007KT P6SM SCT005 SCT150
     FM280500 22010KT P6SM -RA BKN025=



000
FTUS46 KPQR 271452 AAA
TAFEUG
TAF AMD
KEUG 271452Z 2715/2812 19003KT 6SM BR SCT002
     FM271700 20003KT P6SM FEW150
     FM271900 20007KT P6SM SCT005 SCT150
     FM280500 22010KT P6SM -RA BKN025=



000
FTUS46 KPQR 271451 AAA
TAFPDX
TAF AMD
KPDX 271451Z 2715/2812 VRB03KT 6SM MIFG FEW005 FEW150
      TEMPO 2715/2716 1/2SM FG BKN002
     FM271700 23003KT P6SM SCT150
     FM280500 23008KT P6SM -RA BKN025=



000
FTUS46 KPQR 271451 AAA
TAFPDX
TAF AMD
KPDX 271451Z 2715/2812 VRB03KT 6SM MIFG FEW005 FEW150
      TEMPO 2715/2716 1/2SM FG BKN002
     FM271700 23003KT P6SM SCT150
     FM280500 23008KT P6SM -RA BKN025=



000
FTUS46 KPQR 271451 AAA
TAFPDX
TAF AMD
KPDX 271451Z 2715/2812 VRB03KT 6SM MIFG FEW005 FEW150
      TEMPO 2715/2716 1/2SM FG BKN002
     FM271700 23003KT P6SM SCT150
     FM280500 23008KT P6SM -RA BKN025=



000
FTUS46 KPQR 271451 AAA
TAFPDX
TAF AMD
KPDX 271451Z 2715/2812 VRB03KT 6SM MIFG FEW005 FEW150
      TEMPO 2715/2716 1/2SM FG BKN002
     FM271700 23003KT P6SM SCT150
     FM280500 23008KT P6SM -RA BKN025=



000
FTUS46 KPQR 271449 AAA
TAFTTD
TAF AMD
KTTD 271449Z 2715/2812 VRB03KT P6SM FEW150
     FM271800 23005KT P6SM SCT150
     FM280500 23005KT P6SM BKN025=



000
FTUS46 KPQR 271449 AAA
TAFTTD
TAF AMD
KTTD 271449Z 2715/2812 VRB03KT P6SM FEW150
     FM271800 23005KT P6SM SCT150
     FM280500 23005KT P6SM BKN025=



000
FTUS46 KPQR 271438 AAA
TAFONP
TAF AMD
KONP 271438Z 2715/2812 21007KT 2SM BR OVC002
     FM271600 18004KT 5SM BR OVC003
     FM271800 21012KT P6SM SCT003 SCT015
     FM272000 21013G22KT P6SM SCT015 BKN050
     FM280300 22012KT P6SM -RA BKN015=



000
FTUS46 KPQR 271438 AAA
TAFONP
TAF AMD
KONP 271438Z 2715/2812 21007KT 2SM BR OVC002
     FM271600 18004KT 5SM BR OVC003
     FM271800 21012KT P6SM SCT003 SCT015
     FM272000 21013G22KT P6SM SCT015 BKN050
     FM280300 22012KT P6SM -RA BKN015=



000
FTUS46 KPQR 271438 AAA
TAFONP
TAF AMD
KONP 271438Z 2715/2812 21007KT 2SM BR OVC002
     FM271600 18004KT 5SM BR OVC003
     FM271800 21012KT P6SM SCT003 SCT015
     FM272000 21013G22KT P6SM SCT015 BKN050
     FM280300 22012KT P6SM -RA BKN015=



000
FTUS46 KPQR 271437 AAB
TAFAST
TAF AMD
KAST 271437Z 2715/2812 19003KT 6SM BR OVC004
     FM271800 20008KT P6SM SCT005 SCT015
     FM280300 24013KT P6SM -RA BKN015=



000
FTUS46 KPQR 271437 AAB
TAFAST
TAF AMD
KAST 271437Z 2715/2812 19003KT 6SM BR OVC004
     FM271800 20008KT P6SM SCT005 SCT015
     FM280300 24013KT P6SM -RA BKN015=



000
FTUS46 KPQR 271437 AAB
TAFAST
TAF AMD
KAST 271437Z 2715/2812 19003KT 6SM BR OVC004
     FM271800 20008KT P6SM SCT005 SCT015
     FM280300 24013KT P6SM -RA BKN015=



000
FTUS46 KPQR 271148 AAA
TAFAST
TAF AMD
KAST 271148Z 2712/2812 00000KT 1SM BR OVC003
      TEMPO 2713/2716 1/2SM FG
     FM271600 19003KT 4SM BR OVC004
     FM271800 20008KT P6SM SCT005 SCT015
     FM280300 24013KT P6SM -RA BKN015=



000
FTUS46 KPQR 271148 AAA
TAFAST
TAF AMD
KAST 271148Z 2712/2812 00000KT 1SM BR OVC003
      TEMPO 2713/2716 1/2SM FG
     FM271600 19003KT 4SM BR OVC004
     FM271800 20008KT P6SM SCT005 SCT015
     FM280300 24013KT P6SM -RA BKN015=



000
FTUS46 KPQR 271148 AAA
TAFAST
TAF AMD
KAST 271148Z 2712/2812 00000KT 1SM BR OVC003
      TEMPO 2713/2716 1/2SM FG
     FM271600 19003KT 4SM BR OVC004
     FM271800 20008KT P6SM SCT005 SCT015
     FM280300 24013KT P6SM -RA BKN015=



000
FTUS46 KPQR 271148 AAA
TAFAST
TAF AMD
KAST 271148Z 2712/2812 00000KT 1SM BR OVC003
      TEMPO 2713/2716 1/2SM FG
     FM271600 19003KT 4SM BR OVC004
     FM271800 20008KT P6SM SCT005 SCT015
     FM280300 24013KT P6SM -RA BKN015=



000
FTUS46 KPQR 271121
TAFAST
TAF
KAST 271121Z 2712/2812 VRB03KT 4SM BR SCT004 SCT250
     FM271300 00000KT 1SM BR OVC003
     FM271600 19003KT 4SM BR OVC004
     FM271800 20008KT P6SM SCT005 SCT015
     FM280300 24013KT P6SM -RA BKN015=



000
FTUS46 KPQR 271121
TAFONP
TAF
KONP 271121Z 2712/2812 00000KT 1/2SM FG OVC003
     FM271600 18004KT 5SM BR OVC003
     FM271800 21012KT P6SM SCT003 SCT015
     FM272000 21013G22KT P6SM SCT015 BKN050
     FM280300 22012KT P6SM -RA BKN015=



000
FTUS46 KPQR 271121
TAFONP
TAF
KONP 271121Z 2712/2812 00000KT 1/2SM FG OVC003
     FM271600 18004KT 5SM BR OVC003
     FM271800 21012KT P6SM SCT003 SCT015
     FM272000 21013G22KT P6SM SCT015 BKN050
     FM280300 22012KT P6SM -RA BKN015=



000
FTUS46 KPQR 271121
TAFEUG
TAF
KEUG 271121Z 2712/2812 00000KT 6SM BR SCT004 SCT250
     FM271300 00000KT 4SM BR SCT002 BKN005
      TEMPO 2713/2716 1/4SM FG OVC002
     FM271700 20003KT 1SM BR OVC005
     FM271900 20007KT P6SM SCT005 SCT150
     FM280500 22010KT P6SM -RA BKN025=



000
FTUS46 KPQR 271121
TAFEUG
TAF
KEUG 271121Z 2712/2812 00000KT 6SM BR SCT004 SCT250
     FM271300 00000KT 4SM BR SCT002 BKN005
      TEMPO 2713/2716 1/4SM FG OVC002
     FM271700 20003KT 1SM BR OVC005
     FM271900 20007KT P6SM SCT005 SCT150
     FM280500 22010KT P6SM -RA BKN025=



000
FTUS46 KPQR 271121
TAFHIO
TAF
KHIO 271121Z 2712/2812 00000KT 5SM BR FEW002 SCT250
      TEMPO 2713/2716 1/2SM FG OVC002
     FM271800 21005KT P6SM SCT005 SCT150
     FM280500 22009KT P6SM -RA BKN025=



000
FTUS46 KPQR 271121
TAFSLE
TAF
KSLE 271121Z 2712/2812 00000KT 6SM BR SCT004 SCT250
     FM271400 00000KT 1/2SM FG OVC003
     FM271700 18003KT 3SM BR OVC005
     FM271900 19006KT P6SM SCT005 SCT150
     FM280500 22010KT P6SM -RA BKN025=



000
FTUS46 KPQR 271121
TAFPDX
TAF
KPDX 271121Z 2712/2812 VRB03KT 6SM BR SCT005 SCT250
      TEMPO 2713/2716 1/2SM FG BKN002
     FM271800 24003KT P6SM SCT005 SCT150
     FM280500 23008KT P6SM -RA BKN025=



000
FTUS46 KPQR 271121
TAFSLE
TAF
KSLE 271121Z 2712/2812 00000KT 6SM BR SCT004 SCT250
     FM271400 00000KT 1/2SM FG OVC003
     FM271700 18003KT 3SM BR OVC005
     FM271900 19006KT P6SM SCT005 SCT150
     FM280500 22010KT P6SM -RA BKN025=



000
FTUS46 KPQR 271121
TAFTTD
TAF
KTTD 271121Z 2712/2812 08004KT P6SM SCT250
     FM271300 00000KT 6SM BR SCT002 SCT250
      TEMPO 2713/2716 1/2SM FG OVC002
     FM271600 VRB03KT 2SM BR BKN005
     FM271800 23005KT P6SM SCT005 SCT150
     FM280500 23005KT P6SM BKN025=



000
FTUS46 KPQR 271121
TAFTTD
TAF
KTTD 271121Z 2712/2812 08004KT P6SM SCT250
     FM271300 00000KT 6SM BR SCT002 SCT250
      TEMPO 2713/2716 1/2SM FG OVC002
     FM271600 VRB03KT 2SM BR BKN005
     FM271800 23005KT P6SM SCT005 SCT150
     FM280500 23005KT P6SM BKN025=



000
FTUS46 KPQR 271121
TAFPDX
TAF
KPDX 271121Z 2712/2812 VRB03KT 6SM BR SCT005 SCT250
      TEMPO 2713/2716 1/2SM FG BKN002
     FM271800 24003KT P6SM SCT005 SCT150
     FM280500 23008KT P6SM -RA BKN025=



000
FTUS46 KPQR 271121
TAFAST
TAF
KAST 271121Z 2712/2812 VRB03KT 4SM BR SCT004 SCT250
     FM271300 00000KT 1SM BR OVC003
     FM271600 19003KT 4SM BR OVC004
     FM271800 20008KT P6SM SCT005 SCT015
     FM280300 24013KT P6SM -RA BKN015=



000
FTUS46 KPQR 271121
TAFHIO
TAF
KHIO 271121Z 2712/2812 00000KT 5SM BR FEW002 SCT250
      TEMPO 2713/2716 1/2SM FG OVC002
     FM271800 21005KT P6SM SCT005 SCT150
     FM280500 22009KT P6SM -RA BKN025=



    US Dept of Commerce
    National Oceanic and Atmospheric Administration
    National Weather Service
    1325 East West Highway
    Silver Spring, MD 20910
    Page Author: NWS Internet Services Team
Disclaimer
Information Quality
Credits
Glossary
Privacy Policy
Freedom of Information Act (FOIA)
About Us
Career Opportunities